#Info	Device Log	from Device	manufactured by	PyroScience GmbH
#Link	https://pyroscience.com
#Log Name	21270013
#Comment	OXCAPAF
#Device Name	AquapHOx-L-O2
#DeviceID	12
#UniqueID	24EB9B04575BA553
#Serial number	21270013
#Firmware	410
#Build	6
#Number of Channels	1
#Available Sensors	35
#Supported Analytes	3
#Channel	1
#
#settings	temp (0.001 C)	pressure (0.001 mbar)	salinity (0.001 g/L)	duration (1=1ms, 8=128ms)	intensity (0=10%, 7=100%)	amp (3=40x, 4=80x, 5=200x, 6=400x)	frequency (Hz)	crcEnable	writeLock	options (bit0=autoFlashDur., bit1=autoAmpl., bit2=1000xOxygen)	broadcast	analyte (0=none, 1=O2, 2=T, 3=pH, 4=CO2)	fiberType (0=230um, 1=430um, 2=1mm)	dual frequency (Hz)
#0	-300000	1013000	27250	5	2	6	4000	0	0	3	3080192	1	2	100	0	0	0	0	0	0
#calibration	dphi0 (0.001 )	dphi100 (0.001 )	temp0 (0.001 C)	temp100 (0.001 C)	pressure (0.001 mbar)	humidity (0.001 %RH)	f (0.001)	m (0.001)	calFreq (Hz)	tt (10e-5/K)	kt (10e-5/K)	bkgdAmp (0.001 mV)	bkgdDphi (0.001 )	useKsv	ksv (10e-6/mbar)	ft (10e-6 / K)	mt (10e-6/K)	tempOffset (0.001 C)	percentO2 (0.001 %O2)
#1	53533	21984	20418	18210	1013000	100000	804	122	4000	-56	969	118	0	0	0	0	-303	0	20950	0	0	0	0	0	0	0	0	0	0	0
#analogOutput	aoSelectA	aoSelectB	aoSelectC	aoSelectD	aoMinA	aoMinB	aoMinC	aoMinD	aoMaxA	aoMaxB	aoMaxC	aoMaxD
#4	259	261	265	266	0	0	0	0	250000	50000	2500000	250000
#temperatureSettings	sensorType	enableAverage	resistorRef (0.001 Ohm)	a (E-10/K)	b (E-11/K)	c (E-13/K)	tempOffset (0.001 C)	gain
#20	110100	1	56000000	10194608	24977213	322858	0	1
#settingsStatus	sensorCodeType	sensorCodeLED	sensorCodePD	sensorCodeMiddleBlock	sensorCodeLastBlock	sensorSerialNumber	backgroundCompensation	fiberLength	medium	unitsGas	unitsWater	activeSensors	sensorName0	sensorName1	sensorName2	sampleInterval	uidTemperature0	uidTemperature1	uidPressure0	uidPressure1	uidSalinity0	uidSalinity1	measValidityTime
#30	1392508928	2	6	519	195	241450558	0	0	1	0	3	0	0	0	0	30000	0	0	0	0	0	0	0	0	0
#calibrationStatus	lastCal1	lastCal2	lastCal3
#31	671240704	664240704	60000101	0	0	0	0	0
#loggingStatus	filename0	filename1	filename2	mode	interval	duration	active
#32	926036274	858861616	0	1	4	18	0	0	0	0	0	0	0	0	0	0
#deviceStatus	deviceName0	deviceName1	deviceName2	deviceName3	deviceName4	deviceName5	uidLastConfig0	uidLastConfig1	settingsMode	dimPortLed	slaveAddress
#34	1097954657	1883787128	759967055	838860800	0	0	471265616	723084031	0	1000	1	0	0	0	0	0
#nonOpticalSensorsStatus	sampleIntervalSampleTemp	meaValTimeSampleTemp	sampleIntervalCaseTemp	meaValTimeCaseTemp	sampleIntervalPressure	meaValTimePressure	sampleIntervalHumidity	meaValTimeHumidity
#35	30000	90	0	900	0	900	0	900	0	0	0	0	0	0	0	0
#referenceSettings	referenceMode (0=standard, 1=averaging, 2=smart averaging)	refDurationAveragingMode (ms)	refDurationStandardMode (ms)	timeLimitSmartAveragingMode (s)
#41	2	20	50	10	0	0
#
DateTime (YYYY-MM-DD hh:mm:ss)	Fraction of Second (ms)	Comment	status	dphi (0.001 )	umolar (0.001 umol/L)	mbar (0.001 mbar)	airSat (0.001 %air sat)	tempSample (0.001 C)	tempCase (0.001 C)	signalIntensity (0.001 mV)	ambientLight (0.001 mV)	pressure (0.001 mbar)	humidity (0.001 %RH)	resistorTemp (0.001 Ohm or 0.001 mV)	percentO2 (0.001 %O2)	tempOptical (0.001 C)	pH (0.001 pH)	ldev (0.001 nm)	-	-
2024-07-04 11:21:14			0	21907	250678	208968	100557	18331	20510	1894545	4394	1048288	38127	13928362	20628	0	0	0	0	0
2024-07-04 11:21:44			0	21893	250946	209210	100674	18336	20480	1895513	3807	1048216	38137	13925131	20652	0	0	0	0	0
2024-07-04 11:22:14			0	21893	250917	209201	100671	18340	20450	1896801	3571	1048190	38133	13922121	20651	0	0	0	0	0
2024-07-04 11:22:44			0	21611	252690	213019	102595	18961	20330	1871892	1880	1048003	38221	13535476	21028	0	0	0	0	0
2024-07-04 11:23:14			0	21539	247076	212116	102311	20004	20100	1839380	1678	1047848	38516	12912298	20939	0	0	0	0	0
2024-07-04 11:23:44			0	21316	251365	216100	104245	20085	19940	1842740	1425	1048445	38786	12865521	21332	0	0	0	0	0
2024-07-04 11:24:14			0	21194	254072	218420	105364	20083	19860	1832379	2029	1049011	39093	12866446	21561	0	0	0	0	0
2024-07-04 11:24:44			0	21138	256114	219743	105984	19969	19830	1825351	1792	1049566	39297	12932512	21692	0	0	0	0	0
2024-07-04 11:25:14			0	21041	257359	221322	106767	20103	19810	1817779	1833	1049967	39416	12854860	21848	0	0	0	0	0
2024-07-04 11:25:44			0	20997	258812	222323	107240	20038	19830	1813923	2121	1050248	39460	12892718	21947	0	0	0	0	0
2024-07-04 11:26:14			0	20997	259222	222451	107293	19980	19850	1812883	2120	1050211	39451	12925899	21959	0	0	0	0	0
2024-07-04 11:26:44			0	20996	259626	222591	107351	19926	19860	1812071	2044	1050093	39408	12957699	21973	0	0	0	0	0
2024-07-04 11:27:14			0	20985	260218	222913	107499	19878	19850	1812839	1963	1049947	39364	12985807	22005	0	0	0	0	0
2024-07-04 11:27:44			0	20993	260320	222846	107460	19838	19850	1813835	1969	1049893	39375	13009346	21998	0	0	0	0	0
2024-07-04 11:28:14			0	20991	260629	222967	107513	19801	19830	1813371	1823	1049775	39362	13030598	22010	0	0	0	0	0
2024-07-04 11:28:44			0	20997	260706	222917	107484	19771	19800	1813715	2140	1049649	39404	13048382	22005	0	0	0	0	0
2024-07-04 11:29:14			0	21003	260754	222857	107452	19745	19790	1815255	2096	1049686	39446	13063620	21999	0	0	0	0	0
2024-07-04 11:29:44			0	21004	260895	222889	107463	19722	19770	1816267	2040	1049641	39476	13077528	22002	0	0	0	0	0
2024-07-04 11:30:14			0	21007	260962	222873	107453	19703	19750	1816039	1966	1049551	39507	13088286	22001	0	0	0	0	0
2024-07-04 11:30:44			0	21021	260749	222633	107334	19688	19730	1817271	1866	1049606	39549	13097506	21977	0	0	0	0	0
2024-07-04 11:31:14			0	21025	260736	222579	107307	19677	19720	1818675	2136	1049533	39591	13104118	21972	0	0	0	0	0
2024-07-04 11:31:44			0	21017	260991	222758	107392	19667	19710	1819003	2021	1049507	39624	13109672	21989	0	0	0	0	0
2024-07-04 11:32:14			0	21015	261087	222812	107417	19660	19700	1819363	2016	1049462	39666	13113884	21995	0	0	0	0	0
2024-07-04 11:32:44			0	21020	261015	222728	107375	19654	19690	1820407	2195	1049480	39686	13117416	21987	0	0	0	0	0
2024-07-04 11:33:14			0	21024	260945	222657	107340	19651	19680	1820455	1917	1049508	39717	13119559	21979	0	0	0	0	0
2024-07-04 11:33:44			0	21030	260829	222546	107287	19648	19670	1820831	1870	1049472	39739	13121298	21969	0	0	0	0	0
2024-07-04 11:34:14			0	21030	260844	222551	107288	19646	19660	1821315	1963	1049499	39770	13122056	21969	0	0	0	0	0
2024-07-04 11:34:44			0	21041	260592	222336	107185	19646	19650	1822683	1598	1049436	39802	13122176	21948	0	0	0	0	0
2024-07-04 11:35:14			0	21033	260768	222490	107259	19647	19650	1823319	1928	1049463	39813	13121605	21963	0	0	0	0	0
2024-07-04 11:35:44			0	21034	260731	222466	107248	19649	19650	1823751	1996	1049427	39835	13120617	21961	0	0	0	0	0
2024-07-04 11:36:14			0	21029	260831	222559	107293	19651	19630	1824179	2003	1049419	39866	13119285	21970	0	0	0	0	0
2024-07-04 11:36:44			0	21037	260619	222394	107214	19655	19630	1824643	2281	1049482	39866	13117242	21954	0	0	0	0	0
2024-07-04 11:37:14			0	21042	260476	222288	107164	19659	19630	1826031	2038	1049500	39876	13114682	21943	0	0	0	0	0
2024-07-04 11:37:44			0	21051	260250	222106	107076	19662	19630	1825987	2512	1049455	39910	13112723	21925	0	0	0	0	0
2024-07-04 11:38:14			0	21048	260275	222151	107099	19668	19630	1825539	2643	1049500	39931	13109208	21930	0	0	0	0	0
2024-07-04 11:38:44			0	21055	260087	222005	107030	19672	19640	1827171	2279	1049518	39942	13106708	21915	0	0	0	0	0
2024-07-04 11:39:14			0	21067	259771	221759	106912	19678	19630	1828083	2283	1049555	39931	13103507	21891	0	0	0	0	0
2024-07-04 11:39:44			0	21059	259925	221905	106983	19682	19630	1829239	2303	1049473	39942	13101161	21905	0	0	0	0	0
2024-07-04 11:40:14			0	21066	259730	221758	106913	19687	19630	1828387	2071	1049536	39931	13098320	21891	0	0	0	0	0
2024-07-04 11:40:44			0	21078	259428	221516	106797	19691	19640	1830655	2695	1049582	39943	13095646	21867	0	0	0	0	0
2024-07-04 11:41:14			0	21082	259309	221430	106756	19695	19640	1831131	2090	1049609	39943	13093013	21858	0	0	0	0	0
2024-07-04 11:41:44			0	21095	258985	221169	106630	19699	19630	1832107	2255	1049609	39953	13090863	21833	0	0	0	0	0
2024-07-04 11:42:14			0	21104	258746	220983	106542	19704	19640	1833771	2113	1049573	39953	13088063	21814	0	0	0	0	0
2024-07-04 11:42:44			0	21105	258695	220955	106529	19708	19640	1833663	2133	1049636	39943	13085826	21812	0	0	0	0	0
2024-07-04 11:43:14			0	21115	258440	220753	106432	19712	19640	1835203	2177	1049609	39943	13083386	21792	0	0	0	0	0
2024-07-04 11:43:44			0	21118	258351	220688	106401	19715	19640	1835919	2103	1049627	39931	13081387	21785	0	0	0	0	0
2024-07-04 11:44:14			0	21119	258300	220660	106388	19719	19650	1836575	2177	1049563	39922	13079211	21782	0	0	0	0	0
2024-07-04 11:44:44			0	21136	257888	220323	106226	19723	19660	1836495	2304	1049672	39933	13077011	21749	0	0	0	0	0
2024-07-04 11:45:14			0	21133	257927	220372	106251	19727	19670	1837523	2421	1049635	39934	13074134	21754	0	0	0	0	0
2024-07-04 11:45:44			0	21142	257696	220190	106163	19731	19660	1838948	2273	1049645	39922	13071891	21736	0	0	0	0	0
2024-07-04 11:46:14			0	21148	257532	220065	106104	19735	19660	1839843	2162	1049726	39922	13069705	21724	0	0	0	0	0
2024-07-04 11:46:44			0	21157	257301	219883	106017	19739	19670	1839459	2013	1049744	39923	13067605	21706	0	0	0	0	0
2024-07-04 11:47:14			0	21157	257266	219872	106012	19744	19680	1841235	2322	1049780	39923	13064664	21705	0	0	0	0	0
2024-07-04 11:47:44			0	21162	257132	219770	105963	19747	19680	1841227	2454	1049726	39913	13062872	21694	0	0	0	0	0
2024-07-04 11:48:14			0	21174	256848	219535	105850	19749	19680	1841339	2222	1049762	39903	13061390	21671	0	0	0	0	0
2024-07-04 11:48:44			0	21170	256924	219607	105885	19751	19680	1842999	2248	1049707	39892	13060429	21678	0	0	0	0	0
2024-07-04 11:49:14			0	21186	256565	219300	105737	19751	19690	1842796	2348	1049744	39882	13060255	21648	0	0	0	0	0
2024-07-04 11:49:44			0	21186	256565	219300	105737	19751	19690	1844255	2443	1049698	39860	13060379	21648	0	0	0	0	0
2024-07-04 11:50:14			0	21177	256781	219477	105822	19749	19690	1844751	2861	1049644	39860	13061377	21666	0	0	0	0	0
2024-07-04 11:50:44			0	21180	256735	219426	105797	19746	19690	1843768	2097	1049589	39828	13063206	21661	0	0	0	0	0
2024-07-04 11:51:14			0	21176	256853	219512	105838	19742	19680	1843959	2186	1049535	39793	13065769	21669	0	0	0	0	0
2024-07-04 11:51:44			0	21180	256798	219446	105806	19737	19670	1843779	2233	1049472	39772	13068386	21663	0	0	0	0	0
2024-07-04 11:52:14			0	21171	257028	219627	105893	19733	19660	1842667	2218	1049372	39771	13071140	21680	0	0	0	0	0
2024-07-04 11:52:44			0	21171	257071	219641	105898	19727	19660	1842803	2491	1049390	39759	13074231	21682	0	0	0	0	0
2024-07-04 11:53:14			0	21166	257211	219746	105948	19723	19650	1842331	2257	1049327	39770	13077034	21692	0	0	0	0	0
2024-07-04 11:53:44			0	21159	257397	219889	106016	19719	19640	1841611	2308	1049282	39780	13079227	21706	0	0	0	0	0
2024-07-04 11:54:14			0	21156	257493	219956	106048	19715	19630	1842052	2597	1049264	39779	13081437	21713	0	0	0	0	0
2024-07-04 11:54:44			0	21143	257800	220210	106170	19713	19630	1840163	2482	1049282	39779	13082779	21738	0	0	0	0	0
2024-07-04 11:55:14			0	21153	257596	220024	106080	19710	19620	1841391	2482	1049128	39778	13084421	21720	0	0	0	0	0
2024-07-04 11:55:44			0	21137	257971	220337	106231	19708	19620	1841279	2199	1049128	39789	13085513	21750	0	0	0	0	0
2024-07-04 11:56:14			0	21124	258265	220588	106352	19708	19610	1839551	2246	1049201	39777	13085900	21775	0	0	0	0	0
2024-07-04 11:56:44			0	21120	258369	220670	106391	19706	19610	1838967	2147	1049138	39777	13086514	21783	0	0	0	0	0
2024-07-04 11:57:14			0	21113	258528	220805	106456	19706	19610	1838675	2335	1049256	39766	13087065	21797	0	0	0	0	0
2024-07-04 11:57:44			0	21104	258732	220979	106540	19706	19610	1837223	2143	1049201	39777	13086601	21814	0	0	0	0	0
2024-07-04 11:58:14			0	21102	258770	221016	106558	19707	19590	1837391	2091	1049193	39775	13086287	21817	0	0	0	0	0
2024-07-04 11:58:44			0	21093	258967	221188	106641	19708	19590	1836867	2468	1049165	39764	13085626	21834	0	0	0	0	0
2024-07-04 11:59:14			0	21093	258960	221185	106640	19709	19610	1836867	1941	1049247	39777	13084925	21834	0	0	0	0	0
2024-07-04 11:59:44			0	21090	259013	221239	106666	19711	19610	1836235	2560	1049219	39777	13084024	21840	0	0	0	0	0
2024-07-04 12:00:14			0	21098	258825	221082	106591	19712	19600	1837307	2373	1049201	39787	13083016	21824	0	0	0	0	0
2024-07-04 12:00:44			0	21093	258924	221174	106635	19714	19600	1836871	2450	1049201	39797	13082242	21833	0	0	0	0	0
2024-07-04 12:01:14			0	21099	258774	221054	106578	19716	19610	1837431	2135	1049247	39788	13080833	21821	0	0	0	0	0
2024-07-04 12:01:44			0	21100	258730	221028	106565	19719	19600	1836959	2442	1049229	39787	13079061	21819	0	0	0	0	0
2024-07-04 12:02:14			0	21100	258702	221019	106562	19723	19610	1836843	2575	1049274	39788	13076904	21818	0	0	0	0	0
2024-07-04 12:02:44			0	21093	258846	221150	106625	19725	19610	1837967	2318	1049328	39788	13075773	21831	0	0	0	0	0
2024-07-04 12:03:14			0	21100	258659	221006	106556	19729	19610	1838415	2155	1049356	39788	13073276	21816	0	0	0	0	0
2024-07-04 12:03:44			0	21099	258646	221014	106561	19734	19610	1838031	2443	1049419	39788	13070489	21817	0	0	0	0	0
2024-07-04 12:04:14			0	21107	258437	220850	106483	19738	19610	1838787	1850	1049410	39788	13068092	21801	0	0	0	0	0
2024-07-04 12:04:44			0	21107	258409	220841	106479	19742	19630	1839547	2195	1049473	39801	13065589	21800	0	0	0	0	0
2024-07-04 12:05:14			0	21117	258154	220639	106382	19746	19630	1839867	2233	1049427	39801	13063463	21780	0	0	0	0	0
2024-07-04 12:05:44			0	21123	257990	220514	106323	19750	19620	1839955	1885	1049464	39800	13061083	21768	0	0	0	0	0
2024-07-04 12:06:14			0	21121	258007	220544	106338	19754	19640	1840631	2000	1049518	39801	13058663	21771	0	0	0	0	0
2024-07-04 12:06:44			0	21124	257911	220478	106306	19758	19630	1841643	2407	1049500	39790	13055929	21764	0	0	0	0	0
2024-07-04 12:07:14			0	21140	257522	220160	106154	19762	19640	1841299	2012	1049573	39779	13053983	21733	0	0	0	0	0
2024-07-04 12:07:44			0	21128	257757	220380	106261	19767	19650	1841667	2372	1049545	39791	13050816	21755	0	0	0	0	0
2024-07-04 12:08:14			0	21123	257842	220468	106304	19771	19650	1840727	2085	1049590	39770	13048746	21763	0	0	0	0	0
2024-07-04 12:08:44			0	21125	257769	220421	106281	19775	19650	1840987	2183	1049681	39781	13046226	21759	0	0	0	0	0
2024-07-04 12:09:14			0	21135	257515	220219	106185	19779	19660	1841559	2476	1049645	39782	13043933	21739	0	0	0	0	0
2024-07-04 12:09:44			0	21127	257674	220367	106256	19782	19670	1841235	2040	1049690	39772	13041877	21753	0	0	0	0	0
2024-07-04 12:10:14			0	21142	257301	220066	106112	19787	19670	1840819	2562	1049690	39772	13039116	21724	0	0	0	0	0
2024-07-04 12:10:44			0	21134	257446	220210	106182	19792	19670	1840831	2070	1049735	39772	13036099	21738	0	0	0	0	0
2024-07-04 12:11:14			0	21131	257485	220259	106206	19796	19680	1841615	2560	1049735	39773	13033742	21743	0	0	0	0	0
2024-07-04 12:11:44			0	21132	257420	220226	106192	19802	19690	1841647	2368	1049862	39785	13030348	21740	0	0	0	0	0
2024-07-04 12:12:14			0	21129	257453	220273	106215	19807	19690	1841087	2188	1049889	39785	13027117	21744	0	0	0	0	0
2024-07-04 12:12:44			0	21131	257373	220223	106192	19812	19690	1840663	2387	1049889	39773	13024683	21739	0	0	0	0	0
2024-07-04 12:13:14			0	21121	257563	220405	106280	19817	19710	1840871	1902	1049888	39775	13021492	21757	0	0	0	0	0
2024-07-04 12:13:44			0	21132	257280	220182	106174	19822	19720	1840751	2183	1049933	39776	13018642	21735	0	0	0	0	0
2024-07-04 12:14:14			0	21124	257425	220325	106243	19827	19710	1840339	1910	1049952	39786	13015651	21749	0	0	0	0	0
2024-07-04 12:14:44			0	21118	257532	220432	106296	19831	19730	1839231	2230	1049960	39778	13013245	21760	0	0	0	0	0
2024-07-04 12:15:14			0	21131	257204	220170	106170	19836	19740	1839479	2277	1050024	39767	13010064	21734	0	0	0	0	0
2024-07-04 12:15:44			0	21127	257259	220237	106203	19841	19730	1838895	2463	1050015	39778	13007120	21741	0	0	0	0	0
2024-07-04 12:16:14			0	21119	257397	220378	106272	19847	19740	1839307	2169	1050024	39767	13004136	21755	0	0	0	0	0
2024-07-04 12:16:44			0	21115	257459	220446	106305	19851	19750	1839435	2034	1050123	39756	13001595	21761	0	0	0	0	0
2024-07-04 12:17:14			0	21115	257423	220435	106301	19856	19760	1839699	2391	1050177	39757	12998318	21760	0	0	0	0	0
2024-07-04 12:17:44			0	21112	257456	220482	106324	19861	19770	1838595	2311	1050222	39781	12995798	21765	0	0	0	0	0
2024-07-04 12:18:14			0	21116	257331	220394	106282	19866	19770	1838023	2673	1050159	39769	12992990	21756	0	0	0	0	0
2024-07-04 12:18:44			0	21115	257318	220402	106287	19871	19780	1836119	2344	1050177	39770	12989976	21757	0	0	0	0	0
2024-07-04 12:19:14			0	21112	257357	220451	106311	19875	19780	1838407	2273	1050240	39760	12987596	21762	0	0	0	0	0
2024-07-04 12:19:44			0	21103	257532	220616	106392	19879	19790	1838259	2118	1050222	39750	12984866	21778	0	0	0	0	0
2024-07-04 12:20:14			0	21107	257407	220528	106350	19884	19810	1836319	2469	1050230	39751	12982313	21769	0	0	0	0	0
2024-07-04 12:20:44			0	21107	257386	220521	106347	19887	19800	1836723	2379	1050276	39740	12980257	21769	0	0	0	0	0
2024-07-04 12:21:14			0	21108	257335	220493	106334	19891	19820	1836555	2494	1050339	39763	12977913	21766	0	0	0	0	0
2024-07-04 12:21:44			0	21095	257586	220731	106450	19897	19810	1837379	2406	1050348	39752	12974736	21789	0	0	0	0	0
2024-07-04 12:22:14			0	21095	257565	220724	106447	19900	19830	1837059	2664	1050375	39742	12972676	21789	0	0	0	0	0
2024-07-04 12:22:44			0	21087	257710	220868	106517	19905	19830	1836731	2404	1050411	39764	12969726	21803	0	0	0	0	0
2024-07-04 12:23:14			0	21101	257359	220586	106382	19910	19830	1835655	2143	1050411	39753	12967259	21775	0	0	0	0	0
2024-07-04 12:23:44			0	21104	257278	220524	106352	19912	19850	1836131	2459	1050375	39754	12965637	21769	0	0	0	0	0
2024-07-04 12:24:14			0	21092	257513	220745	106460	19917	19830	1835555	2143	1050357	39753	12963067	21791	0	0	0	0	0
2024-07-04 12:24:44			0	21097	257386	220644	106411	19919	19860	1835543	2305	1050502	39755	12961625	21781	0	0	0	0	0
2024-07-04 12:25:14			0	21087	257584	220828	106501	19923	19860	1834899	2107	1050456	39746	12959321	21799	0	0	0	0	0
2024-07-04 12:25:44			0	21090	257481	220759	106468	19928	19870	1834823	2148	1050492	39746	12956271	21792	0	0	0	0	0
2024-07-04 12:26:14			0	21095	257340	220654	106418	19932	19870	1835019	2295	1050501	39757	12953907	21782	0	0	0	0	0
2024-07-04 12:26:44			0	21094	257342	220666	106425	19935	19890	1834467	2320	1050582	39758	12952596	21783	0	0	0	0	0
2024-07-04 12:27:14			0	21089	257426	220754	106468	19939	19880	1834751	2425	1050546	39747	12949795	21792	0	0	0	0	0
2024-07-04 12:27:44			0	21081	257572	220898	106538	19944	19890	1834083	2396	1050619	39748	12947098	21806	0	0	0	0	0
2024-07-04 12:28:14			0	21087	257422	220778	106480	19946	19900	1834267	2313	1050573	39759	12945813	21794	0	0	0	0	0
2024-07-04 12:28:44			0	21084	257455	220825	106503	19951	19900	1834171	2198	1050664	39749	12943013	21799	0	0	0	0	0
2024-07-04 12:29:14			0	21077	257585	220951	106565	19955	19910	1834003	2465	1050673	39749	12940466	21811	0	0	0	0	0
2024-07-04 12:29:44			0	21048	258036	221450	106810	19984	19920	1831535	1993	1050663	39739	12923590	21860	0	0	0	0	0
2024-07-04 12:30:14			0	20891	261006	224331	108214	20070	19920	1813207	2010	1050781	39761	12873936	22145	0	0	0	0	0
2024-07-04 12:30:44			0	20793	262982	226186	109114	20110	19940	1802331	2593	1051135	39795	12850624	22328	0	0	0	0	0
2024-07-04 12:31:14			0	20713	264327	227624	109820	20182	19960	1795978	1845	1051553	39841	12809442	22470	0	0	0	0	0
2024-07-04 12:31:44			0	20708	264049	227600	109817	20237	19990	1794738	2134	1051797	39876	12777652	22467	0	0	0	0	0
2024-07-04 12:32:14			0	20706	263702	227516	109786	20292	20010	1792578	2148	1051951	39921	12746179	22459	0	0	0	0	0
2024-07-04 12:32:44			0	20677	264057	227997	110025	20337	20060	1791590	2017	1052086	39915	12720521	22507	0	0	0	0	0
2024-07-04 12:33:14			0	20687	263552	227710	109893	20375	20080	1790427	2034	1052176	39949	12698381	22478	0	0	0	0	0
2024-07-04 12:33:44			0	20697	263092	227437	109766	20407	20120	1789554	2244	1052420	39931	12680417	22451	0	0	0	0	0
2024-07-04 12:34:14			0	20702	262783	227275	109693	20434	20150	1790294	2773	1052465	39966	12665193	22435	0	0	0	0	0
2024-07-04 12:34:44			0	20700	262688	227270	109694	20454	20180	1790562	1962	1052573	39948	12653877	22435	0	0	0	0	0
2024-07-04 12:35:14			0	20707	262405	227091	109610	20471	20200	1790574	1921	1052600	39960	12643743	22417	0	0	0	0	0
2024-07-04 12:35:44			0	20704	262368	227118	109625	20486	20230	1790502	2229	1052717	39973	12635385	22420	0	0	0	0	0
2024-07-04 12:36:14			0	20702	262315	227126	109632	20500	20260	1791846	1999	1052898	39955	12627341	22421	0	0	0	0	0
2024-07-04 12:36:44			0	20654	263893	228239	110158	20435	20290	1786158	2235	1052906	39979	12664428	22531	0	0	0	0	0
2024-07-04 12:37:14			0	20556	266199	230229	111118	20434	20310	1774306	2279	1053051	39981	12664855	22727	0	0	0	0	0
2024-07-04 12:37:44			0	20527	266768	230785	111389	20450	20350	1772766	2125	1053169	39985	12655763	22782	0	0	0	0	0
2024-07-04 12:38:14			0	21865	239219	205900	99335	20153	20400	1910049	2217	1053759	40217	12825750	20325	0	0	0	0	0
2024-07-04 12:38:44			0	21825	239931	206576	99663	20171	20510	1905325	2411	1054893	40520	12815523	20392	0	0	0	0	0
2024-07-04 12:39:14			0	21829	240220	206623	99678	20114	20630	1904593	2210	1055900	40673	12848237	20397	0	0	0	0	0
2024-07-04 12:39:44			0	21838	240125	206491	99612	20100	20750	1905873	2003	1056388	40651	12856402	20384	0	0	0	0	0
2024-07-04 12:40:14			0	21848	239957	206325	99531	20094	20870	1905781	1973	1056567	40509	12859780	20367	0	0	0	0	0
2024-07-04 12:40:44			0	21861	239955	206178	99454	20053	20980	1905561	2013	1056791	40368	12883766	20353	0	0	0	0	0
2024-07-04 12:41:14			0	21897	239452	205614	99177	20016	21060	1907393	2307	1056889	40223	12905031	20297	0	0	0	0	0
2024-07-04 12:41:44			0	21927	239729	205364	99037	19879	21150	1909849	2262	1057087	40121	12985243	20272	0	0	0	0	0
2024-07-04 12:42:14			0	21941	240023	205300	98993	19790	21200	1910533	2051	1057131	40040	13037207	20266	0	0	0	0	0
2024-07-04 12:42:44			0	21943	239870	205229	98961	19807	21260	1909973	2439	1057285	39968	13027270	20259	0	0	0	0	0
2024-07-04 12:43:14			0	21972	239087	204659	98690	19835	21300	1912353	2452	1057339	39928	13011045	20203	0	0	0	0	0
2024-07-04 12:43:44			0	21954	239361	204946	98831	19850	21340	1908525	2264	1057374	39888	13002206	20231	0	0	0	0	0
2024-07-04 12:44:14			0	21956	239110	204845	98786	19882	21360	1907629	2308	1057501	39846	12983211	20221	0	0	0	0	0
2024-07-04 12:44:44			0	21946	239113	204958	98845	19913	21420	1906921	2351	1057636	39831	12965106	20232	0	0	0	0	0
2024-07-04 12:45:14			0	21953	238923	204820	98780	19920	21460	1906653	2396	1057699	39801	12961281	20219	0	0	0	0	0
2024-07-04 12:45:44			0	21953	239060	204863	98798	19899	21500	1906089	2109	1057762	39793	12973698	20223	0	0	0	0	0
2024-07-04 12:46:14			0	21959	239068	204798	98763	19879	21530	1905169	2040	1057843	39774	12985404	20217	0	0	0	0	0
2024-07-04 12:46:44			0	21958	238794	204723	98734	19924	21560	1905165	2149	1057924	39765	12958737	20209	0	0	0	0	0
2024-07-04 12:47:14			0	21953	238773	204772	98760	19943	21580	1904973	2269	1057987	39747	12947699	20214	0	0	0	0	0
2024-07-04 12:47:44			0	21952	238683	204755	98754	19960	21620	1903945	2225	1057977	39739	12937665	20212	0	0	0	0	0
2024-07-04 12:48:14			0	21970	238625	204536	98642	19912	21630	1904109	2275	1058077	39740	12965977	20191	0	0	0	0	0
2024-07-04 12:48:44			0	21980	238472	204376	98563	19904	21650	1904585	2240	1058122	39719	12970583	20175	0	0	0	0	0
2024-07-04 12:49:14			0	21978	238545	204422	98585	19899	21660	1904305	2664	1058113	39710	12973598	20179	0	0	0	0	0
2024-07-04 12:49:44			0	21981	238327	204319	98539	19923	21680	1904377	2146	1058148	39723	12959649	20169	0	0	0	0	0
2024-07-04 12:50:14			0	21993	238505	204242	98492	19858	21700	1903925	2382	1058266	39725	12997353	20162	0	0	0	0	0
2024-07-04 12:50:44			0	21990	238462	204262	98504	19874	21720	1904537	2151	1058348	39714	12987994	20164	0	0	0	0	0
2024-07-04 12:51:14			0	22008	238059	203935	98347	19879	21750	1906309	2238	1058457	39761	12985103	20131	0	0	0	0	0
2024-07-04 12:51:44			0	22028	237513	203540	98160	19900	21770	1905905	2209	1058602	39763	12972967	20092	0	0	0	0	0
2024-07-04 12:52:14			0	22030	237303	203452	98121	19926	21800	1905805	2588	1058711	39788	12957716	20084	0	0	0	0	0
2024-07-04 12:52:44			0	22047	236768	203095	97953	19955	21830	1906342	2338	1058838	39790	12940646	20048	0	0	0	0	0
2024-07-04 12:53:14			0	22183	233426	200547	96737	20047	21850	1922870	2103	1058965	39781	12887501	19797	0	0	0	0	0
2024-07-04 12:53:44			0	22122	234379	201515	97210	20090	21880	1914890	1979	1059128	39785	12862236	19892	0	0	0	0	0
2024-07-04 12:54:14			0	22020	236743	203386	98106	20044	21910	1904809	2091	1059291	39797	12888949	20077	0	0	0	0	0
2024-07-04 12:54:44			0	22008	237656	203808	98295	19941	21950	1902053	2429	1059464	39824	12948760	20119	0	0	0	0	0
2024-07-04 12:55:14			0	22030	237135	203399	98099	19952	21980	1904057	2127	1059581	39847	12942382	20078	0	0	0	0	0
2024-07-04 12:55:44			0	22026	237405	203528	98157	19923	22020	1904065	2555	1059781	39861	12959578	20091	0	0	0	0	0
2024-07-04 12:56:14			0	22021	237812	203712	98239	19876	22060	1902133	2290	1059881	39843	12986702	20109	0	0	0	0	0
2024-07-04 12:56:44			0	22013	237866	203818	98293	19893	22090	1901441	2445	1060044	39825	12977199	20120	0	0	0	0	0
2024-07-04 12:57:14			0	22013	237788	203793	98283	19905	22110	1900073	2471	1060080	39815	12969789	20117	0	0	0	0	0
2024-07-04 12:57:44			0	22030	237661	203565	98167	19871	22150	1902493	2599	1060115	39796	12989519	20095	0	0	0	0	0
2024-07-04 12:58:14			0	22039	237750	203493	98127	19829	22160	1903305	2331	1060216	39776	13014236	20088	0	0	0	0	0
2024-07-04 12:58:44			0	22054	238108	203439	98086	19727	22170	1904197	2347	1060160	39766	13074578	20082	0	0	0	0	0
2024-07-04 12:59:14			0	22081	237711	203016	97879	19703	22190	1906485	2030	1060251	39747	13088433	20041	0	0	0	0	0
2024-07-04 12:59:44			0	22067	237717	203172	97961	19746	22210	1905093	2121	1060260	39737	13063049	20056	0	0	0	0	0
2024-07-04 13:00:14			0	22069	237866	203197	97968	19717	22230	1904881	1744	1060287	39750	13080583	20058	0	0	0	0	0
2024-07-04 13:00:44			0	22055	237754	203317	98035	19778	22240	1903629	2295	1060368	39740	13044554	20070	0	0	0	0	0
2024-07-04 13:01:14			0	22070	237604	203103	97928	19754	22250	1903965	2282	1060432	39741	13058339	20049	0	0	0	0	0
2024-07-04 13:01:44			0	22080	237889	203082	97908	19679	22260	1905077	2612	1060395	39742	13102686	20047	0	0	0	0	0
2024-07-04 13:02:14			0	22107	237885	202782	97751	19595	22270	1907261	2157	1060368	39743	13152744	20018	0	0	0	0	0
2024-07-04 13:02:44			0	22109	238008	202799	97756	19570	22290	1907778	2340	1060540	39744	13167187	20019	0	0	0	0	0
2024-07-04 13:03:14			0	22100	237767	202823	97776	19635	22300	1905881	2234	1060549	39745	13129002	20022	0	0	0	0	0
2024-07-04 13:03:44			0	22087	237981	203033	97879	19643	22310	1903697	2138	1060631	39757	13123868	20042	0	0	0	0	0
2024-07-04 13:04:14			0	22094	237890	202927	97827	19635	22320	1905502	2227	1060640	39747	13129012	20032	0	0	0	0	0
2024-07-04 13:04:44			0	22104	237829	202798	97761	19613	22330	1904062	2428	1060658	39780	13142086	20019	0	0	0	0	0
2024-07-04 13:05:14			0	22115	238010	202733	97721	19551	22350	1906430	2097	1060776	39792	13178876	20013	0	0	0	0	0
2024-07-04 13:05:44			0	22121	237913	202636	97674	19547	22350	1904978	2047	1060840	39783	13180822	20003	0	0	0	0	0
2024-07-04 13:06:14			0	22124	237911	202602	97657	19538	22360	1906605	2133	1060831	39773	13186630	20000	0	0	0	0	0
2024-07-04 13:06:44			0	22116	237865	202677	97697	19570	22380	1905410	2450	1060839	39752	13167243	20007	0	0	0	0	0
2024-07-04 13:07:14			0	22098	237808	202858	97793	19635	22380	1904046	2452	1060894	39774	13128768	20025	0	0	0	0	0
2024-07-04 13:07:44			0	22094	237909	202934	97829	19632	22400	1902009	2295	1060866	39786	13130614	20032	0	0	0	0	0
2024-07-04 13:08:14			0	22085	238022	203068	97896	19643	22420	1901953	2227	1060893	39777	13124295	20046	0	0	0	0	0
2024-07-04 13:08:44			0	22075	238213	203239	97978	19645	22420	1901001	2494	1060957	39767	13123157	20063	0	0	0	0	0
2024-07-04 13:09:14			0	22070	237871	203187	97963	19713	22430	1899561	2203	1060948	39746	13082726	20058	0	0	0	0	0
2024-07-04 13:09:44			0	22055	237748	203315	98034	19779	22440	1898341	2260	1060957	39768	13043566	20070	0	0	0	0	0
2024-07-04 13:10:14			0	22052	237464	203259	98014	19832	22430	1897881	2136	1060920	39756	13012514	20065	0	0	0	0	0
2024-07-04 13:10:44			0	22061	237248	203091	97934	19837	22440	1898501	2270	1060957	39746	13009436	20048	0	0	0	0	0
2024-07-04 13:11:14			0	22065	237595	203156	97956	19771	22440	1899501	2400	1060929	39735	13048583	20054	0	0	0	0	0
2024-07-04 13:11:44			0	22061	237782	203259	98004	19755	22440	1897670	2099	1060911	39747	13058115	20065	0	0	0	0	0
2024-07-04 13:12:14			0	22050	237837	203398	98074	19781	22440	1897122	2365	1060883	39725	13042815	20078	0	0	0	0	0
2024-07-04 13:12:44			0	22044	237804	203454	98105	19805	22450	1895514	2412	1060892	39747	13028218	20084	0	0	0	0	0
2024-07-04 13:13:14			0	22045	238057	203523	98132	19763	22440	1897309	2157	1060883	39747	13053486	20091	0	0	0	0	0
2024-07-04 13:13:44			0	22052	238044	203441	98090	19743	22450	1897677	2398	1060920	39736	13064865	20083	0	0	0	0	0
2024-07-04 13:14:14			0	22042	237988	203534	98140	19783	22440	1896493	2347	1060829	39747	13041203	20092	0	0	0	0	0
2024-07-04 13:14:44			0	22039	238311	203669	98200	19743	22450	1896481	2446	1060920	39736	13064958	20105	0	0	0	0	0
2024-07-04 13:15:14			0	22061	238147	203374	98051	19699	22440	1897925	1989	1060829	39747	13090910	20076	0	0	0	0	0
2024-07-04 13:15:44			0	22059	238090	203378	98055	19714	22450	1897061	2173	1060920	39747	13082348	20076	0	0	0	0	0
2024-07-04 13:16:14			0	22047	237925	203459	98103	19777	22440	1896357	2278	1060883	39747	13045098	20084	0	0	0	0	0
2024-07-04 13:16:44			0	22026	238042	203729	98240	19825	22440	1895569	2324	1060746	39747	13016606	20111	0	0	0	0	0
2024-07-04 13:17:14			0	22030	237928	203649	98202	19830	22430	1894453	2164	1060783	39746	13014046	20103	0	0	0	0	0
2024-07-04 13:17:44			0	22028	237988	203690	98222	19827	22440	1895145	2424	1060801	39757	13015621	20107	0	0	0	0	0
2024-07-04 13:18:14			0	22026	238297	203809	98273	19786	22430	1895561	1932	1060728	39756	13039687	20119	0	0	0	0	0
2024-07-04 13:18:44			0	22037	238280	203682	98207	19754	22430	1896081	1956	1060756	39746	13058276	20106	0	0	0	0	0
2024-07-04 13:19:14			0	22028	238145	203739	98242	19803	22430	1894849	2025	1060728	39756	13029854	20112	0	0	0	0	0
2024-07-04 13:19:44			0	22033	237619	203518	98145	19868	22420	1894858	2056	1060738	39767	12991475	20090	0	0	0	0	0
2024-07-04 13:20:14			0	22024	237810	203678	98222	19867	22420	1894565	2249	1060711	39756	12991962	20106	0	0	0	0	0
2024-07-04 13:20:44			0	22015	237909	203809	98287	19880	22410	1894785	2286	1060665	39765	12984796	20119	0	0	0	0	0
2024-07-04 13:21:14			0	22006	238231	204011	98381	19859	22420	1893477	1948	1060656	39767	12997113	20139	0	0	0	0	0
2024-07-04 13:21:44			0	22039	238082	203597	98170	19778	22400	1895629	2006	1060592	39775	13044671	20098	0	0	0	0	0
2024-07-04 13:22:14			0	22027	238302	203800	98268	19782	22390	1895369	2112	1060666	39775	13041947	20118	0	0	0	0	0
2024-07-04 13:22:44			0	22026	237971	203707	98231	19836	22400	1895885	2175	1060656	39765	13010027	20109	0	0	0	0	0
2024-07-04 13:23:14			0	22011	237959	203870	98316	19885	22390	1894581	2262	1060574	39763	12981335	20125	0	0	0	0	0
2024-07-04 13:23:44			0	22010	237752	203815	98295	19920	22390	1894353	2130	1060574	39774	12961454	20120	0	0	0	0	0
2024-07-04 13:24:14			0	22017	237433	203637	98213	19947	22390	1893969	2273	1060602	39774	12945349	20102	0	0	0	0	0
2024-07-04 13:24:44			0	22012	237776	203801	98287	19910	22380	1894653	1940	1060556	39774	12966798	20118	0	0	0	0	0
2024-07-04 13:25:14			0	22021	237825	203716	98241	19874	22370	1894533	2239	1060484	39773	12987793	20110	0	0	0	0	0
2024-07-04 13:25:44			0	22012	238075	203895	98326	19864	22370	1893541	2182	1060520	39785	12993958	20127	0	0	0	0	0
2024-07-04 13:26:14			0	22006	238029	203947	98355	19890	22380	1894905	2018	1060447	39774	12978467	20133	0	0	0	0	0
2024-07-04 13:26:44			0	22020	237430	203603	98195	19938	22360	1895177	1983	1060475	39794	12950940	20099	0	0	0	0	0
2024-07-04 13:27:14			0	22027	237676	203603	98187	19878	22370	1895873	2473	1060383	39785	12985460	20099	0	0	0	0	0
2024-07-04 13:27:44			0	22026	237853	203670	98216	19854	22360	1895741	2386	1060411	39772	12999629	20105	0	0	0	0	0
2024-07-04 13:28:14			0	22036	237349	203400	98092	19900	22350	1896457	2014	1060402	39793	12972620	20079	0	0	0	0	0
2024-07-04 13:28:44			0	22032	237353	203446	98116	19912	22350	1896697	2114	1060338	39771	12966067	20083	0	0	0	0	0
2024-07-04 13:29:14			0	22036	237603	203480	98125	19861	22350	1897137	2183	1060393	39782	12995487	20086	0	0	0	0	0
2024-07-04 13:29:44			0	22034	237559	203488	98131	19874	22340	1896489	2625	1060320	39781	12988147	20087	0	0	0	0	0
2024-07-04 13:30:14			0	22022	237792	203695	98231	19876	22330	1895317	2396	1060256	39781	12986669	20108	0	0	0	0	0
2024-07-04 13:30:44			0	22039	237730	203487	98124	19832	22320	1896405	2252	1060257	39791	13012440	20087	0	0	0	0	0
2024-07-04 13:31:14			0	22035	237571	203481	98127	19869	22320	1896213	2290	1060238	39791	12990948	20087	0	0	0	0	0
2024-07-04 13:31:44			0	22025	237548	203585	98182	19904	22320	1896485	2422	1060202	39791	12970573	20097	0	0	0	0	0
2024-07-04 13:32:14			0	22023	237661	203642	98208	19893	22310	1895137	2312	1060221	39779	12976902	20102	0	0	0	0	0
2024-07-04 13:32:44			0	22032	237587	203519	98146	19876	22310	1896857	2002	1060212	39779	12986849	20090	0	0	0	0	0
2024-07-04 13:33:14			0	22031	237523	203510	98144	19889	22310	1895673	2494	1060157	39779	12979335	20089	0	0	0	0	0
2024-07-04 13:33:44			0	22030	237550	203530	98153	19888	22300	1896885	2107	1060111	39789	12979946	20091	0	0	0	0	0
2024-07-04 13:34:14			0	22016	237798	203763	98267	19894	22290	1896529	2194	1060130	39788	12976301	20114	0	0	0	0	0
2024-07-04 13:34:44			0	22023	237459	203579	98182	19924	22290	1896369	2391	1060093	39777	12958881	20096	0	0	0	0	0
2024-07-04 13:35:14			0	22018	237334	203595	98195	19959	22280	1895977	2196	1060057	39787	12938620	20098	0	0	0	0	0
2024-07-04 13:35:44			0	22023	237226	203505	98152	19960	22270	1896201	2325	1060030	39775	12938013	20089	0	0	0	0	0
2024-07-04 13:36:14			0	22019	237502	203637	98211	19930	22270	1895469	2165	1060039	39786	12955550	20102	0	0	0	0	0
2024-07-04 13:36:44			0	22019	237379	203598	98195	19949	22270	1895801	1974	1060030	39797	12944318	20098	0	0	0	0	0
2024-07-04 13:37:14			0	22026	237080	203426	98115	19973	22250	1897137	1906	1059994	39773	12930372	20081	0	0	0	0	0
2024-07-04 13:37:44			0	22038	236868	203226	98018	19968	22260	1897417	2292	1059957	39796	12933103	20061	0	0	0	0	0
2024-07-04 13:38:14			0	22039	237256	203337	98063	19905	22250	1898705	1976	1059976	39795	12969662	20072	0	0	0	0	0
2024-07-04 13:38:44			0	22047	237241	203244	98015	19882	22250	1898429	1983	1059921	39795	12983180	20063	0	0	0	0	0
2024-07-04 13:39:14			0	22040	237391	203369	98074	19881	22230	1898165	2343	1059885	39804	12983715	20075	0	0	0	0	0
2024-07-04 13:39:44			0	22030	237453	203499	98140	19903	22240	1898445	2227	1059867	39793	12971134	20088	0	0	0	0	0
2024-07-04 13:40:14			0	22038	237094	203298	98048	19933	22230	1899278	2386	1059849	39783	12953387	20068	0	0	0	0	0
2024-07-04 13:40:44			0	22028	237442	203518	98151	19911	22230	1898085	2320	1059821	39804	12966635	20090	0	0	0	0	0
2024-07-04 13:41:14			0	22040	237553	203420	98096	19856	22230	1897817	2350	1059858	39804	12998748	20080	0	0	0	0	0
2024-07-04 13:41:44			0	22034	237715	203537	98151	19850	22210	1898297	2512	1059794	39802	13002106	20092	0	0	0	0	0
2024-07-04 13:42:14			0	22042	237428	203358	98068	19869	22220	1899225	2006	1059831	39781	12991061	20074	0	0	0	0	0
2024-07-04 13:42:44			0	22029	237538	203537	98157	19893	22200	1897721	2495	1059749	39791	12976725	20092	0	0	0	0	0
2024-07-04 13:43:14			0	22029	237408	203496	98140	19913	22190	1898145	2291	1059676	39791	12965523	20088	0	0	0	0	0
2024-07-04 13:43:44			0	22034	237169	203366	98080	19934	22190	1899185	2374	1059731	39791	12953023	20075	0	0	0	0	0
2024-07-04 13:44:14			0	22056	236695	202972	97891	19938	22190	1901169	2013	1059704	39791	12950376	20036	0	0	0	0	0
2024-07-04 13:44:44			0	22059	236595	202908	97861	19944	22180	1900753	2337	1059595	39799	12947205	20030	0	0	0	0	0
2024-07-04 13:45:14			0	22073	236549	202739	97774	19907	22190	1901757	2516	1059585	39790	12968738	20013	0	0	0	0	0
2024-07-04 13:45:44			0	22075	236450	202685	97750	19916	22170	1902966	2122	1059577	39809	12963587	20008	0	0	0	0	0
2024-07-04 13:46:14			0	22086	236155	202471	97648	19927	22170	1903530	2364	1059586	39788	12956968	19987	0	0	0	0	0
2024-07-04 13:46:44			0	22094	236018	202340	97584	19923	22170	1903673	2464	1059659	39777	12959295	19974	0	0	0	0	0
2024-07-04 13:47:14			0	22094	235928	202311	97572	19937	22160	1904518	2140	1059622	39777	12951441	19971	0	0	0	0	0
2024-07-04 13:47:44			0	22085	236143	202478	97652	19932	22150	1904069	2136	1059550	39764	12954418	19988	0	0	0	0	0
2024-07-04 13:48:14			0	22073	236432	202702	97759	19925	22140	1902437	2558	1059532	39796	12958323	20010	0	0	0	0	0
2024-07-04 13:48:44			0	22073	236439	202704	97760	19924	22140	1902717	2449	1059477	39796	12959108	20010	0	0	0	0	0
2024-07-04 13:49:14			0	22079	236271	202585	97704	19931	22140	1903165	2231	1059504	39786	12954779	19998	0	0	0	0	0
2024-07-04 13:49:44			0	22070	236435	202736	97777	19934	22140	1901157	2714	1059468	39774	12953190	20013	0	0	0	0	0
2024-07-04 13:50:14			0	22065	236628	202852	97831	19920	22130	1903049	2510	1059432	39806	12960934	20024	0	0	0	0	0
2024-07-04 13:50:44			0	22065	236556	202829	97821	19931	22120	1902605	2413	1059414	39795	12955012	20022	0	0	0	0	0
2024-07-04 13:51:14			0	22069	236430	202745	97782	19938	22140	1901597	2353	1059413	39807	12950887	20014	0	0	0	0	0
2024-07-04 13:51:44			0	22064	236609	202857	97834	19926	22120	1901202	2420	1059377	39794	12957556	20025	0	0	0	0	0
2024-07-04 13:52:14			0	22054	236891	203056	97928	19914	22110	1901817	2541	1059396	39783	12964675	20045	0	0	0	0	0
2024-07-04 13:52:44			0	22063	236928	202968	97881	19880	22120	1901197	2442	1059405	39794	12984756	20036	0	0	0	0	0
2024-07-04 13:53:14			0	22053	237249	203180	97981	19862	22110	1901961	2169	1059396	39771	12994913	20057	0	0	0	0	0
2024-07-04 13:53:44			0	22064	236901	202949	97872	19881	22100	1902885	2413	1059296	39783	12984018	20034	0	0	0	0	0
2024-07-04 13:54:14			0	22053	237255	203182	97982	19861	22110	1901457	2366	1059305	39783	12995744	20057	0	0	0	0	0
2024-07-04 13:54:44			0	22047	237319	203269	98025	19870	22110	1901589	2529	1059414	39793	12990203	20066	0	0	0	0	0
2024-07-04 13:55:14			0	22052	236977	203106	97951	19907	22110	1901865	2510	1059332	39783	12968868	20049	0	0	0	0	0
2024-07-04 13:55:44			0	22064	236654	202871	97840	19919	22100	1902517	2091	1059287	39771	12961551	20026	0	0	0	0	0
2024-07-04 13:56:14			0	22055	236981	203074	97934	19897	22080	1902409	2373	1059269	39780	12974375	20046	0	0	0	0	0
2024-07-04 13:56:44			0	22052	237269	203198	97989	19862	22080	1902457	2216	1059214	39780	12995037	20059	0	0	0	0	0
2024-07-04 13:57:14			0	22062	237234	203076	97927	19836	22080	1902905	2121	1059205	39791	13010210	20047	0	0	0	0	0
2024-07-04 13:57:44			0	22076	236909	202819	97804	19842	22070	1903702	2242	1059251	39769	13007030	20021	0	0	0	0	0
2024-07-04 13:58:14			0	22105	236552	202387	97590	19806	22070	1905229	2139	1059196	39791	13027901	19978	0	0	0	0	0
2024-07-04 13:58:44			0	22100	236959	202569	97672	19759	22070	1905862	2242	1059196	39791	13055322	19997	0	0	0	0	0
2024-07-04 13:59:14			0	22091	236999	202682	97729	19781	22060	1905133	2434	1059151	39767	13042464	20008	0	0	0	0	0
2024-07-04 13:59:44			0	22082	236774	202710	97752	19844	22060	1904065	2454	1059178	39789	13005337	20010	0	0	0	0	0
2024-07-04 14:00:14			0	22083	236617	202650	97725	19865	22060	1905982	2374	1059169	39767	12993505	20004	0	0	0	0	0
2024-07-04 14:00:44			0	22088	236710	202624	97709	19835	22060	1906249	2138	1059233	39789	13010728	20002	0	0	0	0	0
2024-07-04 14:01:14			0	22102	236502	202404	97601	19823	22060	1907629	2408	1059087	39789	13018121	19980	0	0	0	0	0
2024-07-04 14:01:44			0	22103	236651	202440	97614	19797	22050	1906589	2199	1059160	39778	13032958	19984	0	0	0	0	0
2024-07-04 14:02:14			0	22093	236906	202630	97705	19789	22040	1907609	2599	1059087	39777	13037741	20003	0	0	0	0	0
2024-07-04 14:02:44			0	22084	237018	202765	97772	19800	22040	1905510	2184	1059133	39777	13031533	20016	0	0	0	0	0
2024-07-04 14:03:14			0	22070	237103	202946	97863	19831	22040	1904045	2408	1059051	39765	13013104	20034	0	0	0	0	0
2024-07-04 14:03:44			0	22063	237083	203017	97901	19856	22040	1903913	2507	1059051	39777	12998425	20041	0	0	0	0	0
2024-07-04 14:04:14			0	22070	236798	202850	97824	19878	22030	1903521	2243	1059015	39788	12985634	20024	0	0	0	0	0
2024-07-04 14:04:44			0	22090	236546	202550	97676	19854	22030	1906345	2273	1059033	39764	12999750	19995	0	0	0	0	0
2024-07-04 14:05:14			0	22094	236426	202468	97637	19860	22020	1906550	2057	1058997	39775	12996105	19987	0	0	0	0	0
2024-07-04 14:05:44			0	22090	236487	202532	97668	19863	22030	1905645	2218	1059033	39764	12994406	19993	0	0	0	0	0
2024-07-04 14:06:14			0	22101	236426	202391	97597	19838	22010	1906794	2042	1058978	39785	13009216	19979	0	0	0	0	0
2024-07-04 14:06:44			0	22101	236497	202413	97606	19827	22010	1907414	2075	1058951	39763	13015307	19981	0	0	0	0	0
2024-07-04 14:07:14			0	22085	236719	202660	97727	19843	22000	1906873	2114	1058960	39762	13006258	20005	0	0	0	0	0
2024-07-04 14:07:44			0	22097	236708	202524	97656	19807	22010	1907174	2597	1058915	39763	13027080	19992	0	0	0	0	0
2024-07-04 14:08:14			0	22112	236578	202318	97553	19780	22000	1909073	2222	1058869	39772	13042925	19972	0	0	0	0	0
2024-07-04 14:08:44			0	22121	236427	202171	97482	19775	21990	1909766	2173	1058860	39783	13046026	19957	0	0	0	0	0
2024-07-04 14:09:14			0	22125	236352	202104	97449	19774	21990	1909914	2214	1058915	39772	13046743	19951	0	0	0	0	0
2024-07-04 14:09:44			0	22108	236594	202367	97578	19790	21980	1909281	2378	1058842	39782	13037254	19977	0	0	0	0	0
2024-07-04 14:10:14			0	22118	236248	202148	97476	19812	21990	1909433	2274	1058906	39761	13024600	19955	0	0	0	0	0
2024-07-04 14:10:44			0	22110	236294	202251	97528	19830	21980	1907969	2376	1058842	39760	13013966	19965	0	0	0	0	0
2024-07-04 14:11:14			0	22083	236851	202723	97756	19829	21990	1906054	2366	1058879	39761	13014303	20012	0	0	0	0	0
2024-07-04 14:11:44			0	22083	236928	202748	97766	19817	21980	1906554	2539	1058833	39749	13021583	20014	0	0	0	0	0
2024-07-04 14:12:14			0	22082	237105	202814	97794	19793	21980	1906898	2123	1058833	39770	13035772	20021	0	0	0	0	0
2024-07-04 14:12:44			0	22140	236300	201922	97356	19735	21980	1911813	2317	1058815	39771	13069688	19933	0	0	0	0	0
2024-07-04 14:13:14			0	22120	236668	202258	97519	19741	21970	1909578	2495	1058852	39759	13066136	19966	0	0	0	0	0
2024-07-04 14:13:44			0	22119	236890	202338	97553	19710	21960	1910150	2430	1058715	39747	13084728	19974	0	0	0	0	0
2024-07-04 14:14:14			0	22134	236766	202135	97451	19682	21960	1911781	2231	1058743	39747	13101094	19954	0	0	0	0	0
2024-07-04 14:14:44			0	22148	236501	201897	97336	19679	21960	1912162	2031	1058797	39736	13102569	19930	0	0	0	0	0
2024-07-04 14:15:14			0	22144	236446	201924	97352	19700	21950	1911538	2363	1058706	39757	13090516	19933	0	0	0	0	0
2024-07-04 14:15:44			0	22137	236666	202070	97421	19688	21940	1911250	2018	1058606	39746	13097252	19947	0	0	0	0	0
2024-07-04 14:16:14			0	22147	236664	201960	97363	19657	21930	1912005	2096	1058607	39745	13115570	19936	0	0	0	0	0
2024-07-04 14:16:44			0	22163	236625	201771	97266	19613	21930	1912814	2291	1058643	39733	13141859	19918	0	0	0	0	0
2024-07-04 14:17:14			0	22191	237079	201606	97165	19456	21910	1914922	3011	1058498	39732	13235483	19901	0	0	0	0	0
2024-07-04 14:17:44			0	22295	236347	200241	96478	19245	21910	1923042	4591	1058489	39709	13362128	19767	0	0	0	0	0
2024-07-04 14:18:14			0	22394	236034	199070	95880	18987	21900	1932102	6583	1058425	39709	13519444	19651	0	0	0	0	0
2024-07-04 14:18:44			0	22461	236234	198408	95530	18751	21890	1937074	6265	1058289	39675	13664905	19586	0	0	0	0	0
2024-07-04 14:19:14			0	22562	236081	197276	94948	18466	21880	1944735	8294	1058143	39654	13842746	19474	0	0	0	0	0
2024-07-04 14:19:44			0	22626	237310	196962	94750	18088	21840	1949523	8570	1057962	39617	14083076	19443	0	0	0	0	0
2024-07-04 14:20:14			0	22605	238375	197508	95000	17993	21830	1946507	9863	1057798	39583	14144295	19497	0	0	0	0	0
2024-07-04 14:20:44			0	22626	238185	197226	94860	17958	21790	1950047	13393	1057617	39568	14166772	19469	0	0	0	0	0
2024-07-04 14:21:14			0	22621	242434	198545	95421	17352	21760	1946483	11046	1057435	39577	14565146	19599	0	0	0	0	0
2024-07-04 14:21:44			0	22625	243816	198909	95570	17142	21730	1945587	7864	1057190	39541	14705934	19635	0	0	0	0	0
2024-07-04 14:22:14			0	22601	242897	198898	95590	17345	21690	1947695	8190	1056881	39505	14569215	19634	0	0	0	0	0
2024-07-04 14:22:44			0	22571	244421	199674	95947	17216	21650	1943367	8232	1056636	39512	14655829	19711	0	0	0	0	0
2024-07-04 14:23:14			0	22585	243898	199368	95804	17249	21600	1946963	10700	1056355	39498	14634049	19680	0	0	0	0	0
2024-07-04 14:23:44			0	22545	244823	200076	96142	17236	21550	1942855	6832	1056165	39503	14642801	19750	0	0	0	0	0
2024-07-04 14:24:14			0	22469	249111	202168	97102	16858	21490	1934690	6657	1055939	39541	14898912	19957	0	0	0	0	0
2024-07-04 14:24:44			0	22517	248940	201588	96810	16740	21440	1942727	9716	1055585	39538	14979992	19900	0	0	0	0	0
2024-07-04 14:25:14			0	22548	247116	200715	96410	16903	21370	1946643	10137	1055250	39532	14868050	19814	0	0	0	0	0
2024-07-04 14:25:44			0	22562	246068	200256	96202	17009	21320	1948635	9017	1054906	39515	14795909	19768	0	0	0	0	0
2024-07-04 14:26:14			0	22470	248122	201868	96974	16993	21270	1940418	9897	1054816	39544	14806403	19927	0	0	0	0	0
2024-07-04 14:26:44			0	22458	249015	202261	97152	16904	21200	1941262	9156	1054590	39583	14867389	19966	0	0	0	0	0
2024-07-04 14:27:14			0	22444	248624	202302	97183	17000	21160	1942574	11155	1054373	39600	14802154	19970	0	0	0	0	0
2024-07-04 14:27:44			0	22476	247162	201520	96821	17110	21100	1946586	15335	1054119	39617	14727423	19893	0	0	0	0	0
2024-07-04 14:28:14			0	22486	246384	201181	96668	17190	21060	1947358	15065	1054012	39624	14673740	19860	0	0	0	0	0
2024-07-04 14:28:44			0	22469	246445	201386	96772	17232	21010	1945726	15642	1053795	39684	14645144	19880	0	0	0	0	0
2024-07-04 14:29:14			0	22445	246830	201764	96955	17249	20990	1944082	13216	1053804	39715	14633876	19917	0	0	0	0	0
2024-07-04 14:29:44			0	22433	247438	202076	97099	17199	20950	1945542	9761	1053715	39745	14667562	19948	0	0	0	0	0
2024-07-04 14:30:14			0	22447	246675	201696	96925	17265	20910	1946182	8382	1053588	39762	14623054	19910	0	0	0	0	0
2024-07-04 14:30:44			0	22445	246745	201739	96945	17261	20870	1947454	8732	1053399	39748	14625441	19915	0	0	0	0	0
2024-07-04 14:31:14			0	22452	246393	201558	96861	17290	20830	1948566	8815	1053272	39755	14606175	19897	0	0	0	0	0
2024-07-04 14:31:44			0	22439	246610	201766	96962	17298	20800	1948810	8699	1053209	39764	14601268	19917	0	0	0	0	0
2024-07-04 14:32:14			0	22431	246609	201854	97007	17322	20760	1948198	8632	1053002	39760	14585116	19926	0	0	0	0	0
2024-07-04 14:32:44			0	22450	246075	201486	96833	17341	20740	1950206	8614	1052957	39780	14572306	19890	0	0	0	0	0
2024-07-04 14:33:14			0	22459	245957	201352	96767	17331	20700	1952518	9234	1052831	39777	14579162	19876	0	0	0	0	0
2024-07-04 14:33:44			0	22441	246279	201646	96909	17339	20680	1950918	9626	1052686	39786	14573854	19905	0	0	0	0	0
2024-07-04 14:34:14			0	22459	245971	201357	96769	17329	20640	1953950	9535	1052623	39804	14580153	19877	0	0	0	0	0
2024-07-04 14:34:44			0	22453	246048	201445	96813	17336	20620	1955002	9767	1052497	39801	14575724	19886	0	0	0	0	0
2024-07-04 14:35:14			0	22445	246167	201569	96873	17343	20580	1953750	9942	1052352	39810	14570640	19898	0	0	0	0	0
2024-07-04 14:35:44			0	22457	246224	201453	96812	17299	20550	1955818	9326	1052290	39795	14600113	19886	0	0	0	0	0
2024-07-04 14:36:14			0	22451	245998	201453	96818	17349	20530	1958474	10115	1052208	39793	14567162	19886	0	0	0	0	0
2024-07-04 14:36:44			0	22455	245907	201382	96784	17350	20500	1958386	8677	1052091	39802	14566371	19879	0	0	0	0	0
2024-07-04 14:37:14			0	22419	246806	202044	97100	17330	20460	1955370	8020	1051983	39809	14579532	19945	0	0	0	0	0
2024-07-04 14:37:44			0	22413	248832	202706	97385	17063	20440	1953710	3558	1051884	39808	14759413	20010	0	0	0	0	0
2024-07-04 14:38:14			0	22398	250425	203339	97668	16886	20400	1955126	5360	1051712	39815	14879889	20072	0	0	0	0	0
2024-07-04 14:38:44			0	22427	249682	202800	97411	16903	20370	1956594	4882	1051521	39780	14868144	20019	0	0	0	0	0
2024-07-04 14:39:14			0	22440	249852	202705	97358	16841	20330	1959282	5017	1051341	39777	14910314	20010	0	0	0	0	0
2024-07-04 14:39:44			0	22444	249745	202629	97322	16844	20290	1960814	6503	1051133	39750	14908505	20002	0	0	0	0	0
2024-07-04 14:40:14			0	22442	249874	202689	97349	16832	20250	1962962	7688	1050925	39747	14916903	20008	0	0	0	0	0
2024-07-04 14:40:44			0	22394	252057	203858	97892	16673	20210	1960466	8025	1050745	39733	15026141	20124	0	0	0	0	0
2024-07-04 14:41:14			0	22368	254073	204733	98288	16475	20170	1956194	7912	1050392	39707	15163461	20210	0	0	0	0	0
2024-07-04 14:41:44			0	22408	253191	204030	97951	16477	20100	1961650	7250	1050203	39658	15162583	20141	0	0	0	0	0
2024-07-04 14:42:14			0	22426	252106	203515	97715	16572	20060	1965218	7230	1049886	39676	15096420	20090	0	0	0	0	0
2024-07-04 14:42:44			0	22425	251237	203275	97614	16694	20000	1966490	8502	1049642	39670	15011458	20066	0	0	0	0	0
2024-07-04 14:43:14			0	22398	251818	203744	97840	16694	19960	1963674	8926	1049489	39689	15011381	20112	0	0	0	0	0
2024-07-04 14:43:44			0	22381	251754	203916	97929	16753	19900	1965130	7579	1049328	39684	14971010	20129	0	0	0	0	0
2024-07-04 14:44:14			0	22390	251146	203638	97803	16810	19850	1966534	8287	1049093	39722	14931837	20102	0	0	0	0	0
2024-07-04 14:44:44			0	22394	250901	203522	97750	16832	19810	1967834	7536	1048949	39718	14916296	20091	0	0	0	0	0
2024-07-04 14:45:14			0	22388	251764	203840	97890	16731	19770	1967906	7085	1048796	39748	14986174	20122	0	0	0	0	0
2024-07-04 14:45:44			0	22376	252314	204134	98027	16691	19720	1967234	6739	1048689	39744	15013431	20151	0	0	0	0	0
2024-07-04 14:46:14			0	22368	252845	204378	98138	16642	19690	1967230	4381	1048490	39773	15047664	20175	0	0	0	0	0
2024-07-04 14:46:44			0	22372	253169	204427	98155	16586	19630	1970898	4458	1048283	39768	15086373	20180	0	0	0	0	0
2024-07-04 14:47:14			0	22342	254114	205037	98443	16546	19570	1967166	4588	1048012	39751	15114374	20240	0	0	0	0	0
2024-07-04 14:47:44			0	22381	253297	204363	98119	16542	19530	1971282	4773	1047859	39748	15117078	20174	0	0	0	0	0
2024-07-04 14:48:14			0	22385	253108	204263	98073	16556	19480	1974074	5065	1047661	39754	15107355	20164	0	0	0	0	0
2024-07-04 14:48:44			0	22390	253088	204202	98042	16544	19440	1976054	5290	1047517	39751	15115439	20158	0	0	0	0	0
2024-07-04 14:49:14			0	22390	253242	204246	98060	16523	19390	1974562	7113	1047401	39757	15130259	20162	0	0	0	0	0
2024-07-04 14:49:44			0	22389	252501	204043	97975	16627	19340	1975298	5926	1047139	39774	15057921	20142	0	0	0	0	0
2024-07-04 14:50:14			0	22430	251713	203357	97644	16614	19300	1980602	6825	1046995	39782	15066886	20074	0	0	0	0	0
2024-07-04 14:50:44			0	22433	251291	203201	97575	16663	19270	1980842	7050	1046851	39800	15032844	20059	0	0	0	0	0
2024-07-04 14:51:14			0	22442	250778	202952	97461	16707	19230	1982610	7557	1046698	39818	15002366	20034	0	0	0	0	0
2024-07-04 14:51:44			0	22471	250187	202459	97223	16703	19190	1986234	16534	1046645	39837	15005610	19986	0	0	0	0	0
2024-07-04 14:52:14			0	22431	250290	202932	97463	16807	19180	1983654	20357	1046600	39826	14933662	20032	0	0	0	0	0
2024-07-04 14:52:44			0	22303	253917	205419	98643	16688	19160	1973518	19088	1046528	39855	15015640	20278	0	0	0	0	0
2024-07-04 14:53:14			0	22291	254797	205810	98821	16604	19150	1973246	22330	1046538	39887	15073853	20316	0	0	0	0	0
2024-07-04 14:53:44			0	22225	254425	206450	99158	16850	19140	1969810	18577	1046601	39897	14904072	20380	0	0	0	0	0
2024-07-04 14:54:14			0	22206	255821	207071	99440	16717	19130	1968358	14698	1046665	39928	14995646	20441	0	0	0	0	0
2024-07-04 14:54:44			0	22255	254050	206001	98937	16812	19130	1973538	14780	1046665	39940	14930171	20335	0	0	0	0	0
2024-07-04 14:55:14			0	22328	251965	204571	98259	16881	19110	1981138	13653	1046657	39906	14883231	20194	0	0	0	0	0
2024-07-04 14:55:44			0	22329	251139	204318	98151	16992	19090	1980634	13179	1046657	39905	14807204	20169	0	0	0	0	0
2024-07-04 14:56:14			0	22280	253295	205498	98700	16841	19100	1975514	14087	1046666	39905	14910474	20286	0	0	0	0	0
2024-07-04 14:56:44			0	22288	252858	205281	98600	16877	19090	1976290	10484	1046621	39871	14885841	20264	0	0	0	0	0
2024-07-04 14:57:14			0	22272	252942	205486	98702	16913	19090	1973434	13644	1046567	39828	14861294	20284	0	0	0	0	0
2024-07-04 14:57:44			0	22293	252721	205184	98554	16881	19080	1975538	12858	1046531	39817	14883227	20255	0	0	0	0	0
2024-07-04 14:58:14			0	22329	251653	204468	98215	16921	19060	1978898	9609	1046541	39771	14855817	20184	0	0	0	0	0
2024-07-04 14:58:44			0	22304	252221	204915	98429	16917	19070	1977174	11365	1046504	39772	14858774	20228	0	0	0	0	0
2024-07-04 14:59:14			0	22269	253153	205581	98746	16893	19050	1972538	15739	1046505	39716	14874719	20294	0	0	0	0	0
2024-07-04 14:59:44			0	22200	253208	206377	99152	17091	19090	1966262	53476	1046512	39698	14740193	20372	0	0	0	0	0
2024-07-04 15:00:14			0	22184	251781	206139	99068	17336	19110	1965694	43913	1046693	39689	14575684	20349	0	0	0	0	0
2024-07-04 15:00:44			0	22169	249693	205690	98895	17673	19180	1962462	46361	1047054	39759	14352417	20305	0	0	0	0	0
2024-07-04 15:01:14			0	22189	248564	205128	98638	17772	19210	1963998	17297	1047380	39850	14287683	20249	0	0	0	0	0
2024-07-04 15:01:44			0	22183	248459	205165	98659	17805	19220	1963026	15916	1047670	39894	14265954	20253	0	0	0	0	0
2024-07-04 15:02:14			0	22193	247690	204823	98505	17884	19260	1962858	18148	1047877	39886	14214637	20219	0	0	0	0	0
2024-07-04 15:02:44			0	22134	248673	205781	98970	17923	19300	1958157	22698	1047976	39858	14189430	20314	0	0	0	0	0
2024-07-04 15:03:14			0	22092	249276	206436	99291	17965	19370	1955233	34815	1048255	39798	14162126	20378	0	0	0	0	0
2024-07-04 15:03:44			0	22104	248857	206174	99168	17988	19390	1955985	15567	1048436	39768	14147543	20352	0	0	0	0	0
2024-07-04 15:04:14			0	22099	248395	206092	99139	18069	19430	1954989	11781	1048616	39740	14095068	20344	0	0	0	0	0
2024-07-04 15:04:44			0	22112	248012	205830	99015	18084	19470	1956218	13344	1048851	39711	14085989	20318	0	0	0	0	0
2024-07-04 15:05:14			0	22085	248203	206193	99197	18139	19510	1952625	14958	1049022	39681	14050488	20354	0	0	0	0	0
2024-07-04 15:05:44			0	22055	248999	206772	99472	18117	19540	1949897	14430	1049103	39630	14064634	20411	0	0	0	0	0
2024-07-04 15:06:14			0	22096	248010	206010	99108	18133	19570	1955450	15151	1049239	39588	14054036	20336	0	0	0	0	0
2024-07-04 15:06:44			0	22063	247987	206376	99298	18237	19620	1951305	14805	1049346	39571	13987933	20372	0	0	0	0	0
2024-07-04 15:07:14			0	22058	247306	206227	99241	18350	19660	1949641	37437	1049481	39521	13916026	20358	0	0	0	0	0
2024-07-04 15:07:44			0	22022	247558	206711	99484	18424	19720	1946217	46183	1049770	39494	13869332	20405	0	0	0	0	0
2024-07-04 15:08:14			0	21996	247038	206848	99570	18579	19790	1944969	40842	1050113	39489	13772007	20419	0	0	0	0	0
2024-07-04 15:08:44			0	21944	247371	207540	99919	18691	19870	1939301	40512	1050501	39497	13702249	20487	0	0	0	0	0
2024-07-04 15:09:14			0	21920	247138	207742	100031	18799	19950	1936801	39952	1050908	39503	13635148	20507	0	0	0	0	0
2024-07-04 15:09:44			0	21896	247470	208118	100215	18825	20020	1932669	37487	1051360	39509	13619066	20544	0	0	0	0	0
2024-07-04 15:10:14			0	21915	246721	207672	100007	18875	20110	1933569	38518	1051748	39453	13587780	20500	0	0	0	0	0
2024-07-04 15:10:44			0	21917	246069	207448	99912	18964	20200	1934589	38293	1052064	39416	13533597	20478	0	0	0	0	0
2024-07-04 15:11:14			0	21831	246797	208654	100515	19125	20330	1926189	37385	1052560	39375	13435157	20597	0	0	0	0	0
2024-07-04 15:11:44			0	21844	245417	208079	100261	19287	20420	1927409	14366	1052912	39306	13336683	20540	0	0	0	0	0
2024-07-04 15:12:14			0	21812	245920	208600	100516	19313	20510	1923037	37907	1053401	39259	13321039	20592	0	0	0	0	0
2024-07-04 15:12:44			0	21832	246161	208446	100428	19215	20610	1922545	9734	1053661	39192	13380403	20577	0	0	0	0	0
2024-07-04 15:13:14			0	21867	245248	207765	100103	19240	20690	1925177	29244	1054078	39102	13365272	20509	0	0	0	0	0
2024-07-04 15:13:44			0	21847	246149	208271	100337	19170	20780	1921125	40073	1054348	38990	13407686	20559	0	0	0	0	0
2024-07-04 15:14:14			0	21879	244669	207449	99957	19288	20870	1925509	28514	1054636	38899	13336089	20478	0	0	0	0	0
2024-07-04 15:14:44			0	21864	244317	207510	100001	19387	20970	1922177	28839	1054889	38864	13276598	20484	0	0	0	0	0
2024-07-04 15:15:14			0	21861	244597	207631	100054	19355	21050	1920785	10575	1055314	38806	13295798	20496	0	0	0	0	0
2024-07-04 15:15:44			0	21893	243411	206899	99713	19431	21130	1922573	40408	1055567	38715	13250360	20424	0	0	0	0	0
2024-07-04 15:16:14			0	21846	243547	207475	100008	19558	21230	1917449	41349	1055792	38625	13174280	20481	0	0	0	0	0
2024-07-04 15:16:44			0	21882	242198	206645	99621	19647	21280	1921973	12915	1056073	38586	13121909	20399	0	0	0	0	0
2024-07-04 15:17:14			0	21875	242344	206770	99681	19647	21360	1919417	15057	1056408	38517	13121668	20411	0	0	0	0	0
2024-07-04 15:17:44			0	21857	242935	207159	99864	19615	21460	1916165	12148	1056706	38471	13140788	20450	0	0	0	0	0
2024-07-04 15:18:14			0	21892	241603	206347	99485	19705	21500	1919425	9951	1056841	38442	13087318	20369	0	0	0	0	0
2024-07-04 15:18:44			0	21853	242173	206966	99789	19742	21580	1914201	14321	1057140	38373	13065539	20431	0	0	0	0	0
2024-07-04 15:19:14			0	21868	242424	206875	99733	19657	21640	1915945	10678	1057220	38312	13115727	20422	0	0	0	0	0
2024-07-04 15:19:44			0	21891	241525	206333	99481	19720	21690	1915705	11400	1057392	38250	13078413	20368	0	0	0	0	0
2024-07-04 15:20:14			0	21838	243367	207510	100032	19610	21720	1910153	6713	1057500	38231	13143822	20484	0	0	0	0	0
2024-07-04 15:20:44			0	21917	241248	205954	99292	19680	21750	1917461	12613	1057563	38147	13102382	20331	0	0	0	0	0
2024-07-04 15:21:14			0	21911	241327	206046	99338	19687	21800	1915873	12416	1057534	38085	13098090	20340	0	0	0	0	0
2024-07-04 15:21:44			0	21870	241711	206629	99629	19758	21860	1913233	21338	1057724	38069	13056216	20397	0	0	0	0	0
2024-07-04 15:22:14			0	21893	240631	206030	99353	19849	21920	1915629	47579	1057850	38052	13002931	20338	0	0	0	0	0
2024-07-04 15:22:44			0	21904	240640	205909	99290	19813	21980	1915213	14748	1058149	38068	13023869	20326	0	0	0	0	0
2024-07-04 15:23:14			0	21839	241716	206981	99813	19855	22000	1908949	13307	1058404	38070	12998902	20432	0	0	0	0	0
2024-07-04 15:23:44			0	21857	241651	206757	99698	19808	22040	1909033	13962	1058422	38063	13026997	20410	0	0	0	0	0
2024-07-04 15:24:14			0	21905	243152	206683	99608	19432	22060	1911261	3760	1058594	38064	13249802	20403	0	0	0	0	0
2024-07-04 15:24:44			0	22317	249791	204057	98053	17215	22060	1938182	2117	1058540	37966	14656710	20143	0	0	0	0	0
2024-07-04 15:25:14			0	22629	243726	198839	95537	17143	21990	1976735	2495	1056690	37512	14705183	19628	0	0	0	0	0
2024-07-04 15:25:44			0	22710	242301	197546	94911	17107	21840	1983979	2148	1054971	37194	14729662	19501	0	0	0	0	0
2024-07-04 15:26:14			0	22692	242770	197878	95069	17093	21650	1982811	2419	1053519	37058	14739085	19533	0	0	0	0	0
2024-07-04 15:26:44			0	22677	243081	198130	95191	17093	21430	1982275	2462	1052351	37030	14739038	19558	0	0	0	0	0
2024-07-04 15:27:14			0	22666	243287	198310	95277	17096	21210	1982815	2261	1051384	37076	14736792	19576	0	0	0	0	0
2024-07-04 15:27:44			0	22672	243100	198190	95221	17105	21000	1985195	2408	1050608	37190	14730433	19564	0	0	0	0	0
2024-07-04 15:28:14			0	22686	242894	197979	95118	17093	20790	1985223	2122	1049860	37270	14738862	19543	0	0	0	0	0
2024-07-04 15:28:44			0	22694	242715	197840	95051	17095	20620	1988147	2450	1049257	37386	14737296	19530	0	0	0	0	0
2024-07-04 15:29:14			0	22705	242453	197644	94958	17100	20440	1989459	2508	1048700	37501	14734195	19510	0	0	0	0	0
2024-07-04 15:29:44			0	22733	241973	197203	94744	17086	20290	1993483	2490	1048296	37630	14743338	19467	0	0	0	0	0
2024-07-04 15:30:14			0	22754	241625	196875	94585	17074	20140	1997539	2368	1047819	37738	14751412	19434	0	0	0	0	0
2024-07-04 15:30:44			0	22796	240826	196192	94256	17065	20010	2001759	2360	1047415	37834	14757604	19367	0	0	0	0	0
2024-07-04 15:31:14			0	22837	240016	195518	93932	17061	19880	2007603	2394	1046993	37932	14760551	19300	0	0	0	0	0
2024-07-04 15:31:44			0	22865	239426	195047	93706	17064	19770	2011443	2659	1046733	38000	14758158	19254	0	0	0	0	0
2024-07-04 15:32:14			0	22869	239282	194963	93666	17073	19650	2012487	2409	1046356	38098	14752507	19246	0	0	0	0	0
2024-07-04 15:32:44			0	22856	239540	195176	93769	17074	19550	2012235	2519	1045960	38154	14751582	19267	0	0	0	0	0
2024-07-04 15:33:14			0	22859	239486	195128	93746	17073	19460	2013915	2462	1045718	38233	14752490	19262	0	0	0	0	0
2024-07-04 15:33:44			0	22840	239907	195454	93902	17068	19350	2014055	2333	1045414	38289	14755661	19294	0	0	0	0	0
2024-07-04 15:34:14			0	22862	239480	195095	93729	17065	19270	2016711	2226	1045253	38369	14757921	19259	0	0	0	0	0
2024-07-04 15:34:44			0	22888	238931	194659	93520	17068	19180	2021875	2412	1044930	38448	14755497	19216	0	0	0	0	0
2024-07-04 15:35:14			0	22896	238845	194549	93466	17057	19100	2024279	2409	1044706	38495	14763238	19205	0	0	0	0	0
2024-07-04 15:35:44			0	22925	238264	194073	93237	17056	19020	2026935	2664	1044410	38553	14764086	19158	0	0	0	0	0
2024-07-04 15:36:14			0	22914	238569	194278	93334	17044	18950	2027463	2681	1044222	38590	14772147	19178	0	0	0	0	0
2024-07-04 15:36:44			0	22892	239043	194649	93512	17040	18870	2024315	2598	1044062	38637	14774971	19215	0	0	0	0	0
2024-07-04 15:37:14			0	22868	239544	195050	93704	17038	18800	2022355	2695	1043892	38686	14776152	19254	0	0	0	0	0
2024-07-04 15:37:44			0	22853	239911	195317	93831	17029	18740	2022743	2327	1043613	38723	14781963	19281	0	0	0	0	0
2024-07-04 15:38:14			0	22855	239884	195288	93817	17027	18680	2024735	2368	1043515	38762	14783545	19278	0	0	0	0	0
2024-07-04 15:38:44			0	22878	239430	194911	93636	17025	18610	2027367	2261	1043255	38810	14785071	19241	0	0	0	0	0
2024-07-04 15:39:14			1	22914	238789	194343	93361	17012	18540	2097205	2506	1043167	38836	14793886	19184	0	0	0	0	0
2024-07-04 15:39:44			1	22942	238250	193890	93143	17008	18490	2101477	2208	1042933	38865	14796803	19140	0	0	0	0	0
2024-07-04 15:40:14			1	22953	238028	193709	93056	17008	18440	2104405	2412	1042771	38904	14796209	19122	0	0	0	0	0
2024-07-04 15:40:44			1	22953	238083	193725	93063	17000	18390	2104221	2734	1042683	38931	14802027	19123	0	0	0	0	0
2024-07-04 15:41:14			1	22940	238339	193937	93165	17001	18330	2103469	2484	1042513	38936	14801410	19144	0	0	0	0	0
2024-07-04 15:41:44			1	22931	238541	194091	93239	16998	18290	2104229	2589	1042397	38966	14803029	19160	0	0	0	0	0
2024-07-04 15:42:14			1	22923	238710	194225	93303	16997	18240	2102877	2625	1042253	38995	14803910	19173	0	0	0	0	0
2024-07-04 15:42:44			1	22910	238960	194435	93404	16999	18190	2103645	2521	1042138	39033	14802251	19194	0	0	0	0	0
2024-07-04 15:43:14			1	22911	238940	194418	93396	16999	18150	2104821	2465	1042148	39041	14802344	19192	0	0	0	0	0
2024-07-04 15:43:44			1	22927	238622	194157	93270	16998	18110	2106069	2671	1041950	39069	14803416	19166	0	0	0	0	0
2024-07-04 15:44:14			1	22942	238360	193922	93157	16992	18070	2108629	2678	1041816	39087	14807004	19143	0	0	0	0	0
2024-07-04 15:44:44			1	22950	238247	193804	93100	16985	18030	2110621	2373	1041718	39095	14812214	19131	0	0	0	0	0
2024-07-04 15:45:14			1	22962	238032	193615	93008	16981	18000	2112621	2512	1041646	39114	14815112	19113	0	0	0	0	0
2024-07-04 15:45:44			1	22983	237629	193277	92846	16978	17970	2114477	2599	1041512	39122	14817154	19079	0	0	0	0	0
2024-07-04 15:46:14			1	22993	237434	193115	92768	16977	17930	2115941	2450	1041432	39139	14817728	19063	0	0	0	0	0
2024-07-04 15:46:44			1	22989	237501	193177	92797	16979	17890	2116757	2639	1041343	39168	14816360	19069	0	0	0	0	0
2024-07-04 15:47:14			1	22980	237696	193328	92870	16977	17850	2117357	2682	1041199	39156	14817411	19084	0	0	0	0	0
2024-07-04 15:47:44			1	22992	237461	193134	92776	16976	17820	2117733	2844	1041091	39184	14817932	19065	0	0	0	0	0
2024-07-04 15:48:14			1	23003	237226	192950	92688	16978	17800	2119845	2749	1041074	39182	14817018	19047	0	0	0	0	0
2024-07-04 15:48:44			1	23024	236812	192609	92524	16977	17760	2123237	2456	1040876	39201	14817702	19013	0	0	0	0	0
2024-07-04 15:49:14			1	23023	236825	192623	92531	16978	17740	2124285	2712	1040868	39221	14816801	19015	0	0	0	0	0
2024-07-04 15:49:44			1	23039	236497	192360	92405	16979	17710	2125701	2872	1040842	39228	14816263	18989	0	0	0	0	0
2024-07-04 15:50:14			1	23050	236270	192179	92318	16980	17690	2126509	2534	1040752	39259	14815599	18971	0	0	0	0	0
2024-07-04 15:50:44			1	23033	236597	192452	92450	16982	17660	2125565	2550	1040663	39224	14814160	18998	0	0	0	0	0
2024-07-04 15:51:14			1	23032	236610	192466	92457	16983	17630	2127045	2746	1040619	39253	14813566	18999	0	0	0	0	0
2024-07-04 15:51:44			1	23041	236423	192318	92385	16984	17610	2128413	2992	1040529	39274	14812909	18985	0	0	0	0	0
2024-07-04 15:52:14			1	23058	236103	192047	92255	16981	17580	2129685	2740	1040512	39271	14814591	18958	0	0	0	0	0
2024-07-04 15:52:44			1	23071	235844	191836	92153	16981	17560	2130813	2743	1040440	39291	14815042	18937	0	0	0	0	0
2024-07-04 15:53:14			1	23084	235584	191625	92052	16981	17540	2133061	2802	1040386	39290	14815038	18916	0	0	0	0	0
2024-07-04 15:53:44			1	23091	235452	191513	91998	16980	17510	2135285	2565	1040252	39297	14815319	18905	0	0	0	0	0
2024-07-04 15:54:14			1	23107	235133	191254	91874	16980	17510	2137477	2858	1040243	39307	14815349	18880	0	0	0	0	0
2024-07-04 15:54:44			1	23097	235319	191412	91950	16982	17470	2136621	2699	1040181	39315	14813820	18895	0	0	0	0	0
2024-07-04 15:55:14			1	23081	235624	191667	92073	16984	17450	2134253	2905	1040146	39324	14813116	18920	0	0	0	0	0
2024-07-04 15:55:44			1	23074	235764	191781	92128	16984	17440	2134581	2785	1040092	39312	14812768	18932	0	0	0	0	0
2024-07-04 15:56:14			1	23057	236089	192053	92259	16986	17420	2134637	2790	1040056	39311	14811520	18958	0	0	0	0	0
2024-07-04 15:56:44			1	23066	235910	191907	92188	16986	17410	2134517	2612	1039966	39321	14811093	18944	0	0	0	0	0
2024-07-04 15:57:14			1	23073	235749	191787	92131	16989	17400	2135445	2549	1040030	39331	14809337	18932	0	0	0	0	0
2024-07-04 15:57:44			1	23067	235849	191879	92175	16992	17380	2136309	2569	1039913	39329	14807408	18941	0	0	0	0	0
2024-07-04 15:58:14			1	23081	235556	191647	92065	16994	17360	2137581	2467	1039896	39337	14805956	18918	0	0	0	0	0
2024-07-04 15:58:44			1	23082	235529	191629	92056	16995	17350	2139373	2467	1039824	39336	14805161	18917	0	0	0	0	0
2024-07-04 15:59:14			1	23094	235283	191433	91962	16996	17340	2139213	2376	1039860	39335	14804831	18897	0	0	0	0	0
2024-07-04 15:59:44			1	23101	235144	191319	91907	16996	17320	2140797	2231	1039807	39334	14804858	18886	0	0	0	0	0
2024-07-04 16:00:14			1	23100	235164	191336	91915	16996	17310	2140861	2741	1039762	39344	14804898	18888	0	0	0	0	0
2024-07-04 16:00:44			1	23097	235230	191386	91939	16995	17300	2140117	2604	1039681	39354	14805358	18893	0	0	0	0	0
2024-07-04 16:01:14			1	23108	235011	191208	91854	16995	17280	2140621	2782	1039682	39353	14805575	18875	0	0	0	0	0
2024-07-04 16:01:44			1	23124	234700	190951	91730	16994	17270	2142685	2975	1039682	39330	14805812	18850	0	0	0	0	0
2024-07-04 16:02:14			1	23129	234601	190871	91691	16994	17260	2145125	2745	1039619	39351	14806093	18842	0	0	0	0	0
2024-07-04 16:02:44			1	23145	234284	190612	91567	16994	17250	2145533	2515	1039547	39371	14805649	18816	0	0	0	0	0
2024-07-04 16:03:14			1	23147	234244	190580	91552	16994	17240	2147661	2407	1039557	39348	14805986	18813	0	0	0	0	0
2024-07-04 16:03:44			1	23174	233724	190150	91345	16992	17230	2150102	2844	1039539	39358	14807027	18770	0	0	0	0	0
2024-07-04 16:04:14			1	23174	233710	190146	91343	16994	17210	2151781	2876	1039540	39369	14805696	18770	0	0	0	0	0
2024-07-04 16:04:44			1	23177	233637	190094	91318	16996	17210	2150741	2497	1039476	39368	14804484	18765	0	0	0	0	0
2024-07-04 16:05:14			1	23170	233762	190202	91371	16998	17200	2149069	2581	1039440	39367	14803486	18776	0	0	0	0	0
2024-07-04 16:05:44			1	23155	234045	190439	91485	17000	17200	2148333	2528	1039432	39377	14801934	18799	0	0	0	0	0
2024-07-04 16:06:14			1	23138	234375	190711	91616	17001	17180	2146797	2961	1039378	39375	14800962	18826	0	0	0	0	0
2024-07-04 16:06:44			1	23120	234726	191000	91754	17002	17180	2145429	2772	1039396	39375	14800322	18854	0	0	0	0	0
2024-07-04 16:07:14			1	23108	234957	191192	91847	17003	17180	2144293	2573	1039396	39375	14799808	18873	0	0	0	0	0
2024-07-04 16:07:44			1	23052	236074	192101	92283	17003	17170	2137285	2785	1039333	39354	14800155	18963	0	0	0	0	0
2024-07-04 16:08:14			1	23027	236567	192506	92478	17004	17160	2134165	2602	1039342	39374	14798953	19003	0	0	0	0	0
2024-07-04 16:08:44			1	23000	237123	192951	92692	17002	17150	2132029	2413	1039325	39374	14800388	19047	0	0	0	0	0
2024-07-04 16:09:14			1	22984	237444	193212	92817	17002	17140	2130149	2672	1039307	39373	14800786	19073	0	0	0	0	0
2024-07-04 16:09:44			1	22984	237438	193210	92816	17003	17130	2130645	2550	1039262	39372	14799854	19073	0	0	0	0	0
2024-07-04 16:10:14			1	22988	237357	193145	92785	17003	17130	2131157	2611	1039289	39372	14799721	19066	0	0	0	0	0
2024-07-04 16:10:44			1	22997	237162	192994	92713	17005	17120	2131773	2628	1039272	39360	14798526	19051	0	0	0	0	0
2024-07-04 16:11:14			1	22993	237236	193057	92743	17006	17130	2132317	2486	1039335	39372	14797735	19058	0	0	0	0	0
2024-07-04 16:11:44			1	22999	237102	192955	92694	17008	17110	2132405	2471	1039254	39370	14796770	19047	0	0	0	0	0
2024-07-04 16:12:14			1	23014	236801	192710	92577	17008	17120	2133997	2560	1039236	39359	14796323	19023	0	0	0	0	0
2024-07-04 16:12:44			1	22936	238351	193982	93188	17011	17110	2127621	2506	1039218	39370	14794167	19149	0	0	0	0	0
2024-07-04 16:13:14			1	22886	239344	194801	93582	17014	17110	2121389	2669	1039164	39380	14792117	19230	0	0	0	0	0
2024-07-04 16:13:44			1	22851	240049	195379	93859	17015	17100	2118044	2678	1039173	39378	14792020	19287	0	0	0	0	0
2024-07-04 16:14:14			1	22842	240232	195528	93931	17015	17100	2115661	2958	1039200	39378	14791940	19301	0	0	0	0	0
2024-07-04 16:14:44			1	22836	240355	195628	93979	17015	17090	2115156	2958	1039219	39368	14791480	19311	0	0	0	0	0
2024-07-04 16:15:14			1	22830	240477	195727	94027	17015	17090	2114340	2835	1039155	39378	14791723	19321	0	0	0	0	0
2024-07-04 16:15:44			1	22844	240192	195495	93915	17015	17080	2115941	2467	1039174	39356	14791433	19298	0	0	0	0	0
2024-07-04 16:16:14			1	22851	240056	195381	93860	17014	17070	2117613	2636	1039156	39377	14792514	19287	0	0	0	0	0
2024-07-04 16:16:44			1	22877	239520	194948	93652	17015	17080	2119989	2842	1039147	39377	14791940	19244	0	0	0	0	0
2024-07-04 16:17:14			1	22887	239323	194784	93574	17014	17070	2121397	2632	1039183	39377	14792254	19228	0	0	0	0	0
2024-07-04 16:17:44			1	22915	238769	194326	93353	17012	17070	2124165	2825	1039129	39377	14793602	19183	0	0	0	0	0
2024-07-04 16:18:14			1	22928	238506	194112	93251	17012	17070	2126413	2516	1039066	39377	14794000	19162	0	0	0	0	0
2024-07-04 16:18:44			1	22949	238081	193766	93085	17012	17060	2127173	2502	1039084	39366	14793676	19128	0	0	0	0	0
2024-07-04 16:19:14			1	22957	237920	193635	93021	17012	17060	2128685	2525	1039057	39376	14793889	19115	0	0	0	0	0
2024-07-04 16:19:44			1	22965	237759	193504	92958	17012	17070	2130781	2569	1039066	39367	14794036	19102	0	0	0	0	0
2024-07-04 16:20:14			1	22972	237618	193389	92903	17012	17050	2130197	2734	1039085	39375	14793889	19090	0	0	0	0	0
2024-07-04 16:20:44			1	22987	237323	193145	92786	17011	17050	2132581	2772	1039121	39375	14794300	19066	0	0	0	0	0
2024-07-04 16:21:14			1	23000	237054	192931	92683	17012	17040	2135205	2792	1039040	39374	14793833	19045	0	0	0	0	0
2024-07-04 16:21:44			1	23025	236560	192524	92488	17011	17040	2136549	2945	1039049	39364	14794253	19005	0	0	0	0	0
2024-07-04 16:22:14			1	23028	236493	192473	92463	17012	17040	2137341	2854	1038994	39375	14793876	19000	0	0	0	0	0
2024-07-04 16:22:44			1	23042	236212	192245	92354	17012	17040	2139093	2848	1038994	39375	14793930	18977	0	0	0	0	0
2024-07-04 16:23:14			1	23045	236166	192201	92332	17010	17040	2139157	2923	1039013	39374	14794817	18973	0	0	0	0	0
2024-07-04 16:23:44			1	23045	236166	192201	92332	17010	17030	2140253	2575	1039004	39362	14794964	18973	0	0	0	0	0
2024-07-04 16:24:14			1	23039	236286	192298	92379	17010	17040	2139325	2641	1039013	39374	14794901	18983	0	0	0	0	0
2024-07-04 16:24:44			1	23012	236834	192741	92591	17009	17040	2135365	2799	1038985	39374	14795585	19026	0	0	0	0	0
2024-07-04 16:25:14			1	22979	237497	193280	92851	17009	17030	2131965	2404	1038977	39362	14795665	19080	0	0	0	0	0
2024-07-04 16:25:44			1	22943	238203	193865	93132	17012	17030	2127397	2495	1038995	39373	14794026	19137	0	0	0	0	0
2024-07-04 16:26:14			1	22910	238870	194409	93393	17012	17030	2124573	2507	1038995	39373	14793869	19191	0	0	0	0	0
2024-07-04 16:26:44			1	22873	239622	195020	93687	17012	17030	2122285	2810	1039031	39351	14793646	19251	0	0	0	0	0
2024-07-04 16:27:14			1	22848	240131	195434	93886	17012	17020	2118324	2814	1039013	39373	14793676	19292	0	0	0	0	0
2024-07-04 16:27:44			1	22833	240444	195686	94006	17011	17030	2115028	2781	1038968	39394	14794480	19317	0	0	0	0	0
2024-07-04 16:28:14			1	22819	240730	195918	94118	17011	17020	2113364	2565	1038959	39351	14794390	19340	0	0	0	0	0
2024-07-04 16:28:44			1	22808	240962	196104	94207	17010	17020	2112133	2684	1039004	39372	14795432	19358	0	0	0	0	0
2024-07-04 16:29:14			1	22795	241249	196327	94314	17007	17020	2110996	2719	1038896	39372	14796887	19380	0	0	0	0	0
2024-07-04 16:29:44			1	22792	241318	196379	94339	17006	17020	2109860	2412	1038977	39361	14797514	19385	0	0	0	0	0
2024-07-04 16:30:14			1	22769	241790	196763	94523	17006	17020	2109852	2996	1038950	39382	14797531	19423	0	0	0	0	0
2024-07-04 16:30:44			1	22771	241742	196728	94506	17007	17010	2109468	2786	1038995	39360	14797321	19420	0	0	0	0	0
2024-07-04 16:31:14			1	22776	241639	196644	94466	17007	17010	2108500	2758	1038932	39349	14797384	19412	0	0	0	0	0
2024-07-04 16:31:44			1	22767	241831	196796	94539	17006	17000	2107564	2730	1038942	39360	14797638	19427	0	0	0	0	0
2024-07-04 16:32:14			1	22773	241708	196696	94491	17006	17010	2107589	2543	1038914	39371	14797811	19417	0	0	0	0	0
2024-07-04 16:32:44			1	22777	241667	196641	94464	17000	17010	2107276	2829	1038878	39371	14801613	19411	0	0	0	0	0
2024-07-04 16:33:14			1	22790	241393	196422	94359	17001	17000	2109868	2686	1038942	39371	14801209	19390	0	0	0	0	0
2024-07-04 16:33:44			1	22797	241250	196305	94303	17001	17010	2111724	2758	1038905	39360	14801410	19378	0	0	0	0	0
2024-07-04 16:34:14			1	22798	241216	196285	94293	17003	17010	2110948	2694	1038932	39371	14799544	19376	0	0	0	0	0
2024-07-04 16:34:44			1	22786	241434	196477	94386	17007	17010	2111020	2638	1038878	39360	14797244	19395	0	0	0	0	0
2024-07-04 16:35:14			1	22774	241659	196671	94480	17010	17000	2108613	2266	1038923	39371	14794911	19414	0	0	0	0	0
2024-07-04 16:35:44			1	22760	241898	196891	94586	17017	17000	2107557	2424	1038860	39371	14790565	19436	0	0	0	0	0
2024-07-04 16:36:14			1	22738	242337	197256	94762	17019	17000	2106868	2714	1038869	39371	14788692	19472	0	0	0	0	0
2024-07-04 16:36:44			1	22733	242427	197336	94800	17021	17000	2105244	2541	1038915	39360	14787471	19480	0	0	0	0	0
2024-07-04 16:37:14			1	22720	242688	197552	94904	17022	17000	2103260	2693	1038942	39360	14787297	19501	0	0	0	0	0
2024-07-04 16:37:44			1	22712	242853	197686	94969	17022	16990	2101940	2390	1038852	39359	14787170	19515	0	0	0	0	0
2024-07-04 16:38:14			1	22729	242523	197407	94834	17019	16990	2104660	2711	1038906	39370	14788702	19487	0	0	0	0	0
2024-07-04 16:38:44			1	22732	242468	197359	94811	17018	16990	2106780	2965	1038879	39359	14789998	19482	0	0	0	0	0
2024-07-04 16:39:14			1	22786	241371	196458	94378	17016	16990	2110284	2643	1038843	39380	14791319	19393	0	0	0	0	0
2024-07-04 16:39:44			1	22839	240307	195582	93957	17013	17000	2115653	2620	1038896	39371	14792918	19307	0	0	0	0	0
2024-07-04 16:40:14			1	22890	239249	194731	93548	17016	16990	2121157	2700	1038852	39380	14791309	19223	0	0	0	0	0
2024-07-04 16:40:44			1	22919	238654	194250	93317	17017	17000	2124468	2820	1038860	39371	14790335	19175	0	0	0	0	0
2024-07-04 16:41:14			1	22943	238175	193857	93129	17016	17000	2128133	2905	1038833	39371	14791189	19136	0	0	0	0	0
2024-07-04 16:41:44			1	22963	237772	193529	92971	17016	16990	2130317	2468	1038897	39380	14791092	19104	0	0	0	0	0
2024-07-04 16:42:14			1	22992	237188	193053	92742	17016	16990	2133381	2577	1038870	39370	14790772	19057	0	0	0	0	0
2024-07-04 16:42:44			1	23011	236799	192741	92592	17017	16990	2135085	2533	1038879	39359	14790648	19026	0	0	0	0	0
2024-07-04 16:43:14			1	23040	236218	192268	92365	17017	16990	2137461	2747	1038924	39359	14790415	18980	0	0	0	0	0
2024-07-04 16:43:44			1	23055	235918	192024	92248	17017	16990	2139389	2656	1038879	39359	14790245	18956	0	0	0	0	0
2024-07-04 16:44:14			1	23058	235852	191973	92224	17018	17000	2140245	2927	1038806	39371	14789917	18950	0	0	0	0	0
2024-07-04 16:44:44			1	23049	236032	192119	92294	17018	17000	2140685	2680	1038869	39371	14789397	18965	0	0	0	0	0
2024-07-04 16:45:14			1	23073	235546	191727	92106	17019	17000	2140093	2719	1038842	39371	14789206	18926	0	0	0	0	0
2024-07-04 16:45:44			1	23060	235812	191941	92208	17018	17000	2140517	2597	1038860	39371	14789470	18947	0	0	0	0	0
2024-07-04 16:46:14			1	23065	235692	191853	92167	17021	17000	2139333	2698	1038860	39371	14787578	18939	0	0	0	0	0
2024-07-04 16:46:44			1	23041	236164	192242	92353	17022	16990	2137189	2755	1038870	39359	14786817	18977	0	0	0	0	0
2024-07-04 16:47:14			1	23006	236859	192811	92627	17023	17000	2134453	2598	1038915	39360	14786036	19033	0	0	0	0	0
2024-07-04 16:47:44			1	22995	237080	192990	92713	17023	16990	2132925	2550	1038816	39348	14786249	19051	0	0	0	0	0
2024-07-04 16:48:14			1	22988	237234	193109	92770	17021	16990	2130653	2651	1038951	39359	14787658	19063	0	0	0	0	0
2024-07-04 16:48:44			1	22994	237134	193017	92725	17018	17000	2131765	2898	1038915	39360	14789480	19054	0	0	0	0	0
2024-07-04 16:49:14			1	23025	236525	192514	92484	17016	16990	2136589	2963	1038843	39370	14790922	19004	0	0	0	0	0
2024-07-04 16:49:44			1	23072	235600	191754	92118	17014	17000	2142261	2672	1038888	39360	14792468	18929	0	0	0	0	0
2024-07-04 16:50:14			1	23143	234209	190611	91569	17011	16980	2148453	2623	1038825	39358	14794761	18816	0	0	0	0	0
2024-07-04 16:50:44			1	23188	233360	189899	91226	17005	16990	2155021	2520	1038852	39370	14798673	18746	0	0	0	0	0
2024-07-04 16:51:14			1	23227	232619	189282	90929	17001	16980	2157253	2521	1038752	39359	14801420	18685	0	0	0	0	0
2024-07-04 16:51:44			1	23256	232103	188835	90713	16993	16990	2162085	2672	1038788	39359	14806747	18641	0	0	0	0	0
2024-07-04 16:52:14			1	23242	232384	189060	90821	16992	16990	2163366	2730	1038870	39348	14807157	18663	0	0	0	0	0
2024-07-04 16:52:44			1	23256	232110	188837	90714	16992	16990	2163086	2633	1038761	39370	14807668	18641	0	0	0	0	0
2024-07-04 16:53:14			1	23237	232483	189140	90860	16992	16980	2161102	2797	1038834	39348	14807398	18671	0	0	0	0	0
2024-07-04 16:53:44			1	23232	232567	189216	90897	16994	16980	2159302	2720	1038834	39348	14806236	18678	0	0	0	0	0
2024-07-04 16:54:14			1	23231	232600	189236	90906	16992	16980	2159142	2672	1038807	39348	14807231	18680	0	0	0	0	0
2024-07-04 16:54:44			1	23241	232411	189078	90830	16991	16980	2160206	2603	1038807	39370	14808282	18665	0	0	0	0	0
2024-07-04 16:55:14			1	23231	232600	189236	90906	16992	16970	2159134	2699	1038807	39356	14807578	18680	0	0	0	0	0
2024-07-04 16:55:44			1	23197	233263	189778	91167	16993	16990	2154726	2478	1038816	39359	14806440	18734	0	0	0	0	0
2024-07-04 16:56:14			1	23155	234086	190451	91490	16994	16980	2149669	2764	1038780	39359	14805679	18800	0	0	0	0	0
2024-07-04 16:56:44			1	23117	234819	191059	91782	16997	16980	2145309	2652	1038825	39358	14804127	18860	0	0	0	0	0
2024-07-04 16:57:14			1	23062	235887	191942	92207	17001	16980	2139589	2745	1038825	39358	14800962	18947	0	0	0	0	0
2024-07-04 16:57:44			1	22991	237297	193096	92761	17003	16980	2131277	2740	1038798	39369	14800065	19061	0	0	0	0	0
2024-07-04 16:58:14			1	22919	238743	194276	93329	17004	16980	2123405	2445	1038852	39358	14799213	19178	0	0	0	0	0
2024-07-04 16:58:44			1	22877	239589	194968	93661	17005	16980	2117844	2512	1038861	39370	14798192	19246	0	0	0	0	0
2024-07-04 16:59:14			1	22834	240444	195675	94001	17008	16980	2114428	2741	1038825	39358	14796707	19316	0	0	0	0	0
2024-07-04 16:59:44			1	22808	240948	196100	94205	17012	16970	2111101	2478	1038807	39356	14793966	19358	0	0	0	0	0
2024-07-04 17:00:14			1	22789	241324	196412	94356	17014	16980	2108404	2710	1038834	39370	14792341	19389	0	0	0	0	0
2024-07-04 17:00:44			1	22766	241796	196797	94541	17014	16980	2106428	2741	1038798	39358	14792474	19427	0	0	0	0	0
2024-07-04 17:01:14			1	22753	242056	197012	94644	17015	16980	2105468	2471	1038861	39370	14791600	19448	0	0	0	0	0
2024-07-04 17:01:44			1	22748	242152	197094	94684	17016	16970	2104972	2741	1038789	39368	14791366	19456	0	0	0	0	0
2024-07-04 17:02:14			1	22758	241940	196925	94602	17017	16980	2106204	2540	1038825	39358	14790675	19439	0	0	0	0	0
2024-07-04 17:02:44			1	22775	241590	196640	94466	17017	16980	2106028	2896	1038825	39358	14790138	19411	0	0	0	0	0
2024-07-04 17:03:14			1	22779	241508	196573	94434	17017	16970	2108084	2634	1038780	39345	14790688	19405	0	0	0	0	0
2024-07-04 17:03:44			1	22778	241542	196594	94443	17015	16970	2106740	2538	1038753	39356	14791717	19407	0	0	0	0	0
2024-07-04 17:04:14			1	22787	241358	196444	94371	17015	16970	2107940	2129	1038789	39357	14791954	19392	0	0	0	0	0
2024-07-04 17:04:44			1	22786	241378	196461	94379	17015	16970	2108172	2501	1038780	39377	14791910	19393	0	0	0	0	0
2024-07-04 17:05:14			1	22798	241167	196270	94287	17010	16980	2109548	2641	1038798	39358	14795435	19375	0	0	0	0	0
2024-07-04 17:05:44			1	22794	241277	196345	94323	17006	16980	2108236	2772	1038834	39370	14797745	19382	0	0	0	0	0
2024-07-04 17:06:14			1	22786	241476	196489	94391	17001	16970	2108508	2520	1038862	39356	14801219	19396	0	0	0	0	0
2024-07-04 17:06:44			1	22794	241325	196360	94329	16999	16970	2109549	2639	1038726	39356	14802728	19384	0	0	0	0	0
2024-07-04 17:07:14			1	22811	240998	196082	94195	16996	16980	2110420	2738	1038798	39347	14804304	19356	0	0	0	0	0
2024-07-04 17:07:44			1	22818	240861	195968	94140	16995	16970	2111804	2481	1038753	39356	14804971	19345	0	0	0	0	0
2024-07-04 17:08:14			1	22818	240854	195966	94139	16996	16980	2112485	2593	1038798	39358	14804858	19345	0	0	0	0	0
2024-07-04 17:08:44			1	22809	241025	196111	94209	16998	16980	2111245	2573	1038780	39359	14803553	19359	0	0	0	0	0
2024-07-04 17:09:14			1	22811	240984	196078	94193	16998	16960	2112540	2398	1038744	39367	14802928	19356	0	0	0	0	0
2024-07-04 17:09:44			1	22796	241284	196326	94313	16999	16980	2111956	2798	1038798	39358	14802364	19380	0	0	0	0	0
2024-07-04 17:10:14			1	22785	241496	196506	94399	17001	16980	2110052	2678	1038744	39358	14801219	19398	0	0	0	0	0
2024-07-04 17:10:44			1	22798	241202	196281	94292	17005	16970	2110100	2654	1038780	39356	14798759	19376	0	0	0	0	0
2024-07-04 17:11:14			1	22789	241407	196437	94366	17002	16980	2110428	3013	1038780	39370	14800569	19391	0	0	0	0	0
2024-07-04 17:11:44			1	22838	240349	195605	93967	17010	16970	2113028	2503	1038780	39377	14795225	19309	0	0	0	0	0
2024-07-04 17:12:14			1	22892	239270	194716	93540	17007	16970	2120269	2812	1038780	39356	14796997	19221	0	0	0	0	0
2024-07-04 17:12:44			1	22940	238291	193922	93159	17008	16980	2126565	2810	1038807	39370	14796346	19143	0	0	0	0	0
2024-07-04 17:13:14			1	22990	237276	193100	92764	17009	16970	2132765	2529	1038862	39356	14795455	19062	0	0	0	0	0
2024-07-04 17:13:44			1	23027	236485	192482	92468	17016	16960	2135005	2933	1038744	39367	14790752	19001	0	0	0	0	0
2024-07-04 17:14:14			1	23046	236071	192162	92315	17021	16970	2139453	2838	1038807	39367	14787678	18969	0	0	0	0	0
2024-07-04 17:14:44			1	23069	235598	191784	92134	17023	16960	2140389	2786	1038771	39345	14786423	18932	0	0	0	0	0
2024-07-04 17:15:14			1	23098	234980	191302	91903	17029	16970	2143845	2948	1038780	39367	14782461	18884	0	0	0	0	0
2024-07-04 17:15:44			1	23120	234489	190931	91725	17037	16960	2145549	2675	1038771	39367	14777097	18848	0	0	0	0	0
2024-07-04 17:16:14			1	23123	234443	190886	91704	17035	16980	2145933	2932	1038834	39380	14778101	18843	0	0	0	0	0
2024-07-04 17:16:44			1	23119	234536	190955	91736	17033	16970	2146565	2797	1038807	39367	14779276	18850	0	0	0	0	0
2024-07-04 17:17:14			1	23143	234053	190566	91549	17034	16980	2147965	2650	1038834	39370	14778619	18812	0	0	0	0	0
2024-07-04 17:17:44			1	23161	233691	190274	91409	17035	16980	2149845	2527	1038879	39369	14778442	18783	0	0	0	0	0
2024-07-04 17:18:14			1	23168	233553	190161	91355	17035	16970	2152229	2691	1038834	39367	14778095	18772	0	0	0	0	0
2024-07-04 17:18:44			1	23202	232882	189615	91093	17035	16980	2154573	2608	1038888	39370	14777814	18718	0	0	0	0	0
2024-07-04 17:19:14			1	23202	232855	189608	91090	17039	16980	2155013	2997	1038852	39358	14775364	18717	0	0	0	0	0
2024-07-04 17:19:44			1	23221	232442	189292	90939	17045	16980	2156974	2814	1038906	39379	14771049	18686	0	0	0	0	0
2024-07-04 17:20:14			1	23223	232382	189254	90921	17048	16980	2156622	2703	1038825	39358	14769269	18682	0	0	0	0	0
2024-07-04 17:20:44			1	23232	232192	189106	90850	17050	16980	2159078	2759	1038771	39369	14768074	18667	0	0	0	0	0
2024-07-04 17:21:14			1	23242	231996	188946	90773	17050	16980	2159238	2743	1038834	39380	14767767	18652	0	0	0	0	0
2024-07-04 17:21:44			1	23240	232029	188976	90788	17051	16980	2159646	2355	1038834	39370	14767484	18655	0	0	0	0	0
2024-07-04 17:22:14			1	23236	232107	189040	90818	17051	16980	2159333	2841	1038834	39359	14767010	18661	0	0	0	0	0
2024-07-04 17:22:44			1	23231	232212	189122	90858	17050	16990	2160446	2572	1038870	39359	14767807	18669	0	0	0	0	0
2024-07-04 17:23:14			1	23243	231997	188936	90768	17047	16980	2159614	2715	1038861	39370	14770064	18651	0	0	0	0	0
2024-07-04 17:23:44			1	23247	231965	188886	90743	17040	16990	2158598	2710	1038824	39370	14774523	18646	0	0	0	0	0
2024-07-04 17:24:14			1	23227	232364	189207	90897	17039	16980	2157614	2577	1038807	39370	14775755	18677	0	0	0	0	0
2024-07-04 17:24:44			1	23227	232324	189196	90892	17045	16990	2159086	2741	1038897	39359	14771566	18676	0	0	0	0	0
2024-07-04 17:25:14			1	23250	231846	188821	90713	17049	16980	2159246	2820	1038825	39347	14768879	18639	0	0	0	0	0
2024-07-04 17:25:44			1	23246	231938	188888	90745	17047	17000	2159230	2584	1038915	39371	14769710	18646	0	0	0	0	0
2024-07-04 17:26:14			1	23265	231559	188584	90599	17048	16990	2161438	2764	1038843	39370	14769103	18616	0	0	0	0	0
2024-07-04 17:26:44			1	23286	231156	188251	90439	17047	16980	2164190	2552	1038915	39370	14770034	18583	0	0	0	0	0
2024-07-04 17:27:14			1	23307	230733	187914	90277	17049	16990	2167454	2612	1038816	39359	14768615	18550	0	0	0	0	0
2024-07-04 17:27:44			1	23336	230156	187451	90055	17051	16990	2170342	2690	1038933	39370	14767066	18504	0	0	0	0	0
2024-07-04 17:28:14			1	23370	229477	186908	89795	17054	17000	2173822	2673	1038860	39371	14764924	18451	0	0	0	0	0
2024-07-04 17:28:44			1	23389	229090	186603	89648	17057	16990	2175134	2595	1038978	39380	14763128	18420	0	0	0	0	0
2024-07-04 17:29:14			1	23375	229361	186824	89754	17057	17000	2175366	2582	1038888	39381	14763328	18442	0	0	0	0	0
2024-07-04 17:29:44			1	23373	229413	186859	89771	17055	16990	2174838	3001	1038897	39370	14764820	18446	0	0	0	0	0
2024-07-04 17:30:14			1	23349	229897	187244	89955	17052	17000	2172782	2541	1038915	39371	14766522	18484	0	0	0	0	0
2024-07-04 17:30:44			1	23341	230066	187374	90018	17050	17000	2170062	2781	1038915	39371	14768158	18496	0	0	0	0	0
2024-07-04 17:31:14			1	23301	230863	188013	90325	17047	17000	2167118	2825	1038996	39371	14770171	18560	0	0	0	0	0
2024-07-04 17:31:44			1	23292	231039	188156	90393	17047	17000	2165006	2760	1038860	39349	14770298	18574	0	0	0	0	0
2024-07-04 17:32:14			1	23273	231430	188464	90541	17044	17000	2162366	2808	1038923	39349	14771973	18604	0	0	0	0	0
2024-07-04 17:32:44			1	23257	231756	188723	90665	17042	16990	2161813	2707	1038960	39370	14773198	18630	0	0	0	0	0
2024-07-04 17:33:14			1	23226	232377	189221	90904	17040	17000	2157526	2749	1038923	39360	14774770	18679	0	0	0	0	0
2024-07-04 17:33:44			1	23181	233269	189944	91251	17039	17000	2152765	2729	1038969	39360	14775298	18750	0	0	0	0	0
2024-07-04 17:34:14			1	23163	233618	190232	91390	17040	17000	2149870	2645	1038951	39371	14774950	18779	0	0	0	0	0
2024-07-04 17:34:44			1	23140	234072	190602	91568	17040	17000	2147205	2445	1038915	39371	14774774	18815	0	0	0	0	0
2024-07-04 17:35:14			1	23109	234694	191104	91809	17039	17000	2145029	2467	1038896	39371	14775204	18865	0	0	0	0	0
2024-07-04 17:35:44			1	23101	234853	191234	91871	17039	17000	2143605	2625	1038951	39371	14775398	18878	0	0	0	0	0
2024-07-04 17:36:14			1	23082	235231	191542	92019	17039	17010	2141245	2772	1038905	39371	14775264	18908	0	0	0	0	0
2024-07-04 17:36:44			1	23077	235330	191623	92058	17039	17010	2139333	2442	1038932	39360	14775221	18916	0	0	0	0	0
2024-07-04 17:37:14			1	23051	235842	192043	92260	17040	17000	2137749	2408	1038951	39382	14774513	18957	0	0	0	0	0
2024-07-04 17:37:44			1	23049	235875	192074	92275	17041	17010	2135965	2545	1038941	39371	14774253	18960	0	0	0	0	0
2024-07-04 17:38:14			1	23044	235982	192157	92315	17040	16990	2136949	2441	1038933	39359	14774567	18969	0	0	0	0	0
2024-07-04 17:38:44			1	23045	235955	192139	92306	17041	17000	2137141	2275	1038869	39371	14774316	18967	0	0	0	0	0
2024-07-04 17:39:14			1	23053	235795	192009	92243	17041	17000	2138101	2542	1038923	39360	14773949	18954	0	0	0	0	0
2024-07-04 17:39:44			1	23054	235769	191990	92235	17042	17000	2138981	2432	1038923	39360	14773272	18952	0	0	0	0	0
2024-07-04 17:40:14			1	23061	235615	191872	92178	17044	16990	2138797	2701	1038906	39348	14772294	18941	0	0	0	0	0
2024-07-04 17:40:44			1	23067	235489	191773	92131	17045	17000	2139637	2743	1038915	39349	14771316	18931	0	0	0	0	0
2024-07-04 17:41:14			1	23069	235442	191739	92114	17046	17000	2140157	2646	1038923	39371	14770895	18927	0	0	0	0	0
2024-07-04 17:41:44			1	23072	235382	191690	92091	17046	17000	2138045	2797	1038923	39360	14770875	18923	0	0	0	0	0
2024-07-04 17:42:14			1	23061	235595	191866	92176	17047	17000	2137709	2729	1038923	39360	14769827	18940	0	0	0	0	0
2024-07-04 17:42:44			1	23066	235495	191785	92137	17047	17000	2139157	2487	1038978	39371	14769783	18932	0	0	0	0	0
2024-07-04 17:43:14			1	23078	235256	191591	92043	17047	16990	2137717	2537	1038852	39370	14770241	18913	0	0	0	0	0
2024-07-04 17:43:44			1	23069	235435	191737	92113	17047	17000	2138957	2519	1038996	39360	14770067	18927	0	0	0	0	0
2024-07-04 17:44:14			1	23074	235336	191655	92074	17047	17000	2140109	2624	1038896	39360	14769727	18919	0	0	0	0	0
2024-07-04 17:44:44			1	23090	235024	191398	91951	17046	17000	2142917	2685	1038842	39371	14770491	18894	0	0	0	0	0
2024-07-04 17:45:14			1	23097	234878	191283	91895	17047	17000	2141973	2750	1038915	39360	14770121	18882	0	0	0	0	0
2024-07-04 17:45:44			1	23073	235342	191668	92081	17049	17000	2140645	2538	1038951	39360	14768952	18920	0	0	0	0	0
2024-07-04 17:46:14			1	23076	235276	191617	92056	17050	17010	2139293	2633	1038987	39371	14767864	18915	0	0	0	0	0
2024-07-04 17:46:44			1	23071	235348	191690	92092	17054	17000	2139173	2441	1038923	39360	14765241	18923	0	0	0	0	0
2024-07-04 17:47:14			1	23059	235574	191881	92184	17056	17000	2138869	2879	1038860	39360	14763862	18941	0	0	0	0	0
2024-07-04 17:47:44			1	23057	235587	191906	92196	17060	17010	2138125	2812	1038878	39371	14761472	18944	0	0	0	0	0
2024-07-04 17:48:14			1	23052	235693	191989	92236	17059	17010	2137709	2614	1038932	39360	14761836	18952	0	0	0	0	0
2024-07-04 17:48:44			1	23064	235440	191790	92141	17061	17010	2137861	2656	1038878	39371	14760471	18932	0	0	0	0	0
2024-07-04 17:49:14			1	23089	234942	191384	91946	17061	17000	2141013	2750	1038923	39371	14760351	18892	0	0	0	0	0
2024-07-04 17:49:44			1	23097	234777	191253	91883	17062	17010	2140973	2818	1038941	39382	14760117	18879	0	0	0	0	0
2024-07-04 17:50:14			1	23117	234373	190928	91727	17063	17000	2144133	2866	1039005	39371	14759479	18847	0	0	0	0	0
2024-07-04 17:50:44			1	23114	234432	190976	91750	17063	17010	2143813	2935	1039023	39371	14759349	18852	0	0	0	0	0
2024-07-04 17:51:14			1	23130	234115	190718	91626	17063	17010	2145397	2888	1038941	39360	14759209	18827	0	0	0	0	0
2024-07-04 17:51:44			1	23132	234076	190685	91610	17063	17010	2144661	2564	1038932	39371	14758996	18823	0	0	0	0	0
2024-07-04 17:52:14			1	23157	233581	190283	91417	17063	17010	2148597	2789	1038914	39371	14759046	18784	0	0	0	0	0
2024-07-04 17:52:44			1	23158	233562	190267	91409	17063	17010	2147269	2680	1038887	39371	14759059	18782	0	0	0	0	0
2024-07-04 17:53:14			1	23158	233548	190263	91407	17065	17020	2147750	2546	1039004	39361	14758041	18782	0	0	0	0	0
2024-07-04 17:53:44			1	23160	233502	190229	91391	17066	17010	2149845	2514	1038914	39360	14757100	18778	0	0	0	0	0
2024-07-04 17:54:14			1	23170	233278	190060	91310	17070	17010	2149486	3168	1038959	39349	14754680	18762	0	0	0	0	0
2024-07-04 17:54:44			1	23177	233099	189936	91251	17076	17010	2151789	3029	1038941	39371	14750140	18749	0	0	0	0	0
2024-07-04 17:55:14			1	23181	232994	189863	91217	17080	17010	2151565	2645	1038968	39360	14747717	18742	0	0	0	0	0
2024-07-04 17:55:44			1	23180	233000	189876	91223	17082	17010	2149437	2822	1038995	39371	14746245	18743	0	0	0	0	0
2024-07-04 17:56:14			1	23159	233414	190213	91385	17082	17020	2149125	2915	1038986	39362	14746525	18777	0	0	0	0	0
2024-07-04 17:56:44			1	23170	233197	190036	91300	17082	17020	2149045	2593	1039004	39372	14746435	18759	0	0	0	0	0
2024-07-04 17:57:14			1	23176	233059	189934	91252	17085	17010	2148125	2972	1038914	39371	14744529	18749	0	0	0	0	0
2024-07-04 17:57:44			1	23156	233446	190253	91405	17086	17020	2148189	2916	1039004	39382	14743371	18781	0	0	0	0	0
2024-07-04 17:58:14			1	23156	233433	190249	91404	17088	17020	2149389	2755	1039031	39372	14742106	18780	0	0	0	0	0
2024-07-04 17:58:44			1	23138	233721	190519	91534	17098	17020	2147181	2629	1039004	39382	14735333	18807	0	0	0	0	0
2024-07-04 17:59:14			1	23146	233530	190381	91468	17103	17030	2147030	2769	1039103	39362	14731875	18793	0	0	0	0	0
2024-07-04 17:59:44			1	23149	233450	190326	91443	17106	17030	2146509	2562	1038995	39383	14730243	18788	0	0	0	0	0
2024-07-04 18:00:14			1	23149	233430	190320	91440	17109	17020	2146341	2589	1039013	39383	14727870	18787	0	0	0	0	0
2024-07-04 18:00:44			1	23136	233667	190524	91538	17112	17030	2146501	2463	1039076	39383	14725961	18807	0	0	0	0	0
2024-07-04 18:01:14			1	23161	233166	190120	91344	17113	17020	2148261	2659	1039013	39373	14725517	18768	0	0	0	0	0
2024-07-04 18:01:44			1	23166	233041	190031	91302	17117	17020	2149261	2461	1039013	39383	14722756	18759	0	0	0	0	0
2024-07-04 18:02:14			1	23180	232772	189809	91195	17116	17040	2151189	2710	1039094	39374	14723003	18737	0	0	0	0	0
2024-07-04 18:02:44			1	23192	232529	189614	91102	17117	17040	2152590	2948	1039067	39384	14722513	18718	0	0	0	0	0
2024-07-04 18:03:14			1	23207	232228	189372	90985	17118	17040	2154030	2710	1039121	39363	14722085	18694	0	0	0	0	0
2024-07-04 18:03:44			1	23217	232065	189222	90913	17113	17040	2155862	2532	1039067	39384	14725026	18679	0	0	0	0	0
2024-07-04 18:04:14			1	23226	231902	189082	90845	17111	17030	2155398	3033	1039076	39383	14726481	18665	0	0	0	0	0
2024-07-04 18:04:44			1	23248	231458	188727	90675	17113	17040	2156406	2584	1039157	39375	14725223	18630	0	0	0	0	0
2024-07-04 18:05:14			1	23253	231354	188645	90636	17114	17050	2157510	2749	1039112	39375	14724475	18622	0	0	0	0	0
2024-07-04 18:05:44			1	23262	231172	188500	90566	17115	17040	2159998	2775	1039094	39374	14723845	18608	0	0	0	0	0
2024-07-04 18:06:14			1	23257	231263	188578	90604	17116	17030	2159310	2870	1039058	39373	14723047	18615	0	0	0	0	0
2024-07-04 18:06:44			1	23270	231002	188369	90503	17117	17040	2161006	2780	1039049	39385	14722426	18595	0	0	0	0	0
2024-07-04 18:07:14			1	23268	231041	188401	90519	17117	17040	2159894	2646	1039148	39363	14722743	18598	0	0	0	0	0
2024-07-04 18:07:44			1	23268	231041	188401	90519	17117	17040	2161054	2827	1039121	39374	14722603	18598	0	0	0	0	0
2024-07-04 18:08:14			1	23269	231015	188383	90510	17118	17040	2162558	2799	1039076	39364	14721808	18596	0	0	0	0	0
2024-07-04 18:08:44			1	23285	230703	188128	90388	17118	17050	2163302	2831	1039112	39375	14722059	18571	0	0	0	0	0
2024-07-04 18:09:14			1	23280	230827	188216	90429	17114	17040	2161358	3052	1039076	39375	14724792	18580	0	0	0	0	0
2024-07-04 18:09:44			1	23291	230679	188061	90354	17104	17040	2162830	2998	1039130	39375	14731118	18564	0	0	0	0	0
2024-07-04 18:10:14			1	23306	230421	187832	90244	17099	17050	2165046	3022	1039121	39375	14734789	18542	0	0	0	0	0
2024-07-04 18:10:44			1	23322	230136	187587	90125	17095	17050	2166502	2927	1039175	39375	14737203	18517	0	0	0	0	0
2024-07-04 18:11:14			1	23343	229749	187261	89968	17092	17050	2168926	2810	1039085	39353	14739245	18485	0	0	0	0	0
2024-07-04 18:11:44			1	23373	229181	186791	89742	17090	17050	2170782	2855	1039112	39353	14740914	18439	0	0	0	0	0
2024-07-04 18:12:14			1	23390	228886	186533	89618	17085	17060	2174638	3023	1039157	39354	14744366	18414	0	0	0	0	0
2024-07-04 18:12:44			1	23428	228174	185943	89334	17082	17050	2177094	2935	1039166	39375	14746422	18355	0	0	0	0	0
2024-07-04 18:13:14			1	23448	227842	185645	89190	17074	17050	2178870	2837	1039139	39364	14751699	18326	0	0	0	0	0
2024-07-04 18:13:44			1	23439	228101	185811	89268	17061	17060	2179726	3006	1039102	39354	14760194	18342	0	0	0	0	0
2024-07-04 18:14:14			1	23370	229491	186912	89796	17052	17050	2170582	2997	1039057	39353	14766416	18451	0	0	0	0	0
2024-07-04 18:14:44			1	23312	230656	187841	90242	17046	17040	2163862	2650	1039021	39364	14770648	18543	0	0	0	0	0
2024-07-04 18:15:14			1	23240	232183	189021	90807	17028	17040	2155862	2769	1039049	39353	14782891	18659	0	0	0	0	0
2024-07-04 18:15:44			1	23192	233093	189780	91172	17033	17040	2150550	2738	1039013	39341	14779583	18734	0	0	0	0	0
2024-07-04 18:16:14			1	23168	233620	190181	91364	17025	17040	2147365	2671	1039076	39353	14784707	18774	0	0	0	0	0
2024-07-04 18:16:44			1	23147	234055	190525	91528	17022	17040	2146333	2638	1039013	39352	14786753	18808	0	0	0	0	0
2024-07-04 18:17:14			1	23143	234141	190591	91560	17021	17050	2146453	2710	1039057	39353	14787337	18814	0	0	0	0	0
2024-07-04 18:17:44			1	23136	234287	190706	91615	17020	17030	2146197	2598	1039031	39351	14787978	18825	0	0	0	0	0
2024-07-04 18:18:14			1	23130	234412	190805	91663	17019	17030	2145341	2538	1038977	39362	14789317	18835	0	0	0	0	0
2024-07-04 18:18:44			1	23145	234108	190561	91546	17020	17030	2145605	2746	1039004	39351	14788435	18811	0	0	0	0	0
2024-07-04 18:19:14			1	23131	234338	190773	91648	17027	17020	2146301	2572	1038986	39351	14783752	18832	0	0	0	0	0
2024-07-04 18:19:44			1	23136	234179	190674	91602	17036	17030	2145733	2875	1038995	39351	14777133	18822	0	0	0	0	0
2024-07-04 18:20:14			1	23141	234012	190574	91555	17046	17020	2145021	2346	1038932	39373	14770995	18812	0	0	0	0	0
2024-07-04 18:20:44			1	23149	233699	190400	91474	17069	17020	2146477	2616	1038977	39361	14755110	18795	0	0	0	0	0
2024-07-04 18:21:14			1	23176	233079	189940	91254	17082	17030	2149557	2695	1038968	39362	14745971	18750	0	0	0	0	0
2024-07-04 18:21:44			1	23201	232560	189531	91058	17086	17020	2152093	2931	1038986	39394	14743875	18709	0	0	0	0	0
2024-07-04 18:22:14			1	23217	232279	189285	90939	17081	17030	2153758	2970	1039031	39383	14747173	18685	0	0	0	0	0
2024-07-04 18:22:44			1	23226	232116	189145	90872	17079	17030	2155349	2776	1039004	39383	14748178	18671	0	0	0	0	0
2024-07-04 18:23:14			1	23234	231933	189009	90807	17083	17020	2155262	2751	1039013	39383	14745504	18658	0	0	0	0	0
2024-07-04 18:23:44			1	23232	231952	189035	90820	17086	17030	2157230	2724	1039049	39373	14743461	18660	0	0	0	0	0
2024-07-04 18:24:14			1	23240	231802	188909	90759	17085	17030	2157230	2501	1039031	39383	14744022	18648	0	0	0	0	0
2024-07-04 18:24:44			1	23262	231431	188576	90598	17076	17030	2159390	2845	1039058	39383	14750374	18615	0	0	0	0	0
2024-07-04 18:25:14			1	23283	231095	188264	90447	17065	17030	2161038	3064	1039004	39383	14758091	18584	0	0	0	0	0
2024-07-04 18:25:44			1	23313	230603	187815	90230	17051	17040	2162902	2741	1038994	39375	14767464	18540	0	0	0	0	0
2024-07-04 18:26:14			1	23303	230765	187964	90302	17056	17030	2162590	2894	1039049	39373	14764196	18555	0	0	0	0	0
2024-07-04 18:26:44			1	23283	231155	188282	90455	17056	17030	2161102	2931	1038977	39373	14764086	18586	0	0	0	0	0
2024-07-04 18:27:14			1	23256	231689	188713	90662	17055	17040	2158790	3005	1039013	39363	14764296	18629	0	0	0	0	0
2024-07-04 18:27:44			1	23239	232022	188984	90792	17055	17020	2155654	2562	1039013	39362	14764830	18655	0	0	0	0	0
2024-07-04 18:28:14			1	23216	232466	189350	90968	17056	17040	2152318	2656	1038994	39353	14764142	18692	0	0	0	0	0
2024-07-04 18:28:44			1	23191	232971	189754	91162	17054	17030	2149894	2745	1038949	39362	14765117	18731	0	0	0	0	0
2024-07-04 18:29:14			1	23156	233695	190326	91436	17049	17030	2147557	2663	1038968	39362	14768528	18788	0	0	0	0	0
2024-07-04 18:29:44			1	23149	233840	190441	91491	17048	17030	2145477	2737	1038941	39373	14769657	18799	0	0	0	0	0
2024-07-04 18:30:14			1	23136	234158	190668	91599	17039	17030	2143437	2806	1038977	39362	14775288	18822	0	0	0	0	0
2024-07-04 18:30:44			1	23105	234800	191177	91843	17035	17040	2140485	2665	1038958	39363	14777838	18872	0	0	0	0	0
2024-07-04 18:31:14			1	23070	235490	191742	92115	17036	17030	2137853	2768	1038913	39373	14777734	18928	0	0	0	0	0
2024-07-04 18:31:44			1	23059	235696	191917	92199	17038	17030	2135957	2819	1038941	39373	14776069	18945	0	0	0	0	0
2024-07-04 18:32:14			1	23030	236269	192387	92425	17039	17020	2134397	2719	1038932	39373	14775144	18991	0	0	0	0	0
2024-07-04 18:32:44			1	23005	236756	192791	92619	17041	17020	2130629	2866	1038959	39373	14773939	19031	0	0	0	0	0
2024-07-04 18:33:14			1	22995	236957	192954	92698	17041	17020	2129717	3004	1038959	39362	14774043	19047	0	0	0	0	0
2024-07-04 18:33:44			1	22998	236903	192907	92675	17040	17020	2129525	2617	1038896	39372	14774660	19043	0	0	0	0	0
2024-07-04 18:34:14			1	22975	237372	193286	92857	17039	17030	2126253	2462	1039004	39362	14775755	19080	0	0	0	0	0
2024-07-04 18:34:44			1	22965	237587	193454	92937	17037	17030	2124973	2625	1038922	39362	14776526	19097	0	0	0	0	0
2024-07-04 18:35:14			1	22975	237400	193294	92860	17035	17020	2125733	3084	1038923	39372	14778001	19081	0	0	0	0	0
2024-07-04 18:35:44			1	22969	237527	193394	92908	17034	17020	2125621	2978	1038977	39372	14778923	19091	0	0	0	0	0
2024-07-04 18:36:14			1	22982	237273	193183	92807	17033	17020	2125861	2793	1038959	39383	14779607	19070	0	0	0	0	0
2024-07-04 18:36:44			1	22992	237051	193013	92726	17036	17010	2127325	2981	1038995	39382	14777497	19053	0	0	0	0	0
2024-07-04 18:37:14			1	22996	236903	192928	92686	17046	17010	2128405	2945	1038887	39382	14770521	19045	0	0	0	0	0
2024-07-04 18:37:44			1	22990	237003	193020	92730	17049	17010	2127781	2707	1038905	39393	14768332	19054	0	0	0	0	0
2024-07-04 18:38:14			1	23006	236654	192750	92601	17053	17020	2128285	2818	1038896	39372	14765614	19027	0	0	0	0	0
2024-07-04 18:38:44			1	23017	236413	192565	92512	17056	17020	2130541	3031	1038950	39382	14763648	19009	0	0	0	0	0
2024-07-04 18:39:14			1	23017	236386	192557	92509	17060	17010	2131845	2746	1038887	39393	14761339	19008	0	0	0	0	0
2024-07-04 18:39:44			1	23068	235360	191725	92109	17061	17010	2136253	2885	1038905	39382	14760621	18926	0	0	0	0	0
2024-07-04 18:40:14			1	23126	234215	190788	91659	17060	17010	2141685	2434	1038959	39371	14761469	18834	0	0	0	0	0
2024-07-04 18:40:44			1	23166	233424	190144	91350	17060	17010	2147781	2525	1038959	39404	14761229	18770	0	0	0	0	0
2024-07-04 18:41:14			1	23212	232518	189406	90995	17060	17020	2151125	2387	1038869	39382	14760868	18697	0	0	0	0	0
2024-07-04 18:41:44			1	23230	232151	189114	90855	17062	17010	2153805	2738	1038914	39371	14759600	18668	0	0	0	0	0
2024-07-04 18:42:14			1	23243	231870	188899	90752	17066	17020	2155206	3022	1038977	39405	14757050	18647	0	0	0	0	0
2024-07-04 18:42:44			1	23267	231387	188513	90567	17068	17010	2158326	3103	1038914	39382	14755781	18609	0	0	0	0	0
2024-07-04 18:43:14			1	23291	230932	188135	90385	17066	17010	2160718	2974	1038860	39382	14757300	18572	0	0	0	0	0
2024-07-04 18:43:44			1	23305	230779	187948	90293	17048	17010	2162254	2842	1038959	39393	14769583	18553	0	0	0	0	0
2024-07-04 18:44:14			1	23323	230561	187702	90173	17028	17000	2162526	2552	1038923	39393	14782574	18529	0	0	0	0	0
2024-07-04 18:44:44			1	23294	231200	188183	90403	17017	17010	2159678	2671	1038968	39393	14790381	18576	0	0	0	0	0
2024-07-04 18:45:14			1	23254	231982	188820	90709	17017	17010	2155862	2743	1038959	39382	14790058	18639	0	0	0	0	0
2024-07-04 18:45:44			1	23222	232636	189339	90958	17013	17010	2152565	2939	1038941	39382	14793379	18690	0	0	0	0	0
2024-07-04 18:46:14			1	23208	232945	189572	91069	17008	17000	2152286	2970	1038923	39371	14796333	18714	0	0	0	0	0
2024-07-04 18:46:44			1	23206	232978	189603	91084	17009	17010	2151166	2652	1038905	39371	14795815	18716	0	0	0	0	0
2024-07-04 18:47:14			1	23192	233267	189831	91193	17007	17010	2149853	2764	1038851	39393	14796907	18739	0	0	0	0	0
2024-07-04 18:47:44			1	23156	234086	190441	91485	16991	17000	2145045	2794	1038896	39371	14807745	18799	0	0	0	0	0
2024-07-04 18:48:14			1	23131	234514	190824	91670	17001	16990	2142165	2992	1038824	39370	14801119	18837	0	0	0	0	0
2024-07-04 18:48:44			1	23123	234659	190950	91730	17003	17000	2141533	2711	1038860	39371	14799584	18849	0	0	0	0	0
2024-07-04 18:49:14			1	23121	234652	190968	91740	17010	17000	2140557	2741	1038833	39371	14794918	18851	0	0	0	0	0
2024-07-04 18:49:44			1	23145	234162	190577	91552	17012	17000	2143893	2554	1038842	39371	14793709	18813	0	0	0	0	0
2024-07-04 18:50:14			1	23157	233945	190389	91462	17009	17000	2146053	2714	1038833	39392	14795669	18794	0	0	0	0	0
2024-07-04 18:50:44			1	23186	233392	189929	91240	17006	16990	2148341	2772	1038824	39370	14797761	18749	0	0	0	0	0
2024-07-04 18:51:14			1	23196	233209	189773	91165	17004	17000	2150389	2675	1038860	39381	14799514	18733	0	0	0	0	0
2024-07-04 18:51:44			1	23211	232927	189536	91051	17002	16990	2152293	2789	1038797	39370	14800302	18710	0	0	0	0	0
2024-07-04 18:52:14			1	23225	232678	189320	90947	16998	17000	2152734	2690	1038869	39371	14802978	18689	0	0	0	0	0
2024-07-04 18:52:44			1	23242	232371	189056	90820	16994	17000	2155214	2643	1038788	39393	14806316	18663	0	0	0	0	0
2024-07-04 18:53:14			1	23252	232208	188906	90747	16989	17000	2156062	2887	1038842	39393	14809060	18648	0	0	0	0	0
2024-07-04 18:53:44			1	23262	232019	188749	90672	16988	16990	2158390	2840	1038843	39380	14809975	18632	0	0	0	0	0
2024-07-04 18:54:14			1	23248	232280	188968	90777	16990	16990	2155982	2754	1038824	39380	14808386	18654	0	0	0	0	0
2024-07-04 18:54:44			1	23219	232823	189424	90996	16994	16990	2151733	2801	1038761	39391	14805729	18699	0	0	0	0	0
2024-07-04 18:55:14			1	23195	233282	189805	91179	16996	16990	2148165	2655	1038816	39380	14804744	18736	0	0	0	0	0
2024-07-04 18:55:44			1	23173	233696	190152	91347	16999	16990	2147709	2558	1038816	39380	14802798	18771	0	0	0	0	0
2024-07-04 18:56:14			1	23189	233374	189893	91222	17000	16980	2147621	2699	1038752	39380	14801620	18745	0	0	0	0	0
2024-07-04 18:56:44			1	23203	233084	189664	91113	17002	16980	2149422	2920	1038825	39369	14800298	18723	0	0	0	0	0
2024-07-04 18:57:14			1	23204	233058	189646	91104	17003	16980	2149517	2665	1038888	39380	14799888	18721	0	0	0	0	0
2024-07-04 18:57:44			1	23198	233176	189743	91151	17003	16980	2149486	2933	1038780	39380	14799657	18730	0	0	0	0	0
2024-07-04 18:58:14			1	23206	233012	189612	91088	17004	16980	2151310	2928	1038780	39380	14799240	18717	0	0	0	0	0
2024-07-04 18:58:44			1	23225	232631	189306	90941	17005	16990	2152630	2558	1038816	39380	14798369	18687	0	0	0	0	0
2024-07-04 18:59:14			1	23236	232408	189129	90856	17006	16990	2153734	2572	1038797	39380	14797635	18670	0	0	0	0	0
2024-07-04 18:59:44			1	23256	232003	188805	90701	17008	16980	2156366	2438	1038744	39369	14796597	18638	0	0	0	0	0
2024-07-04 19:00:14			1	23280	231526	188421	90516	17009	16990	2158542	2519	1038680	39380	14795548	18600	0	0	0	0	0
2024-07-04 19:00:44			1	23300	231123	188100	90362	17011	16980	2160854	2613	1038825	39379	14794217	18568	0	0	0	0	0
2024-07-04 19:01:14			1	23303	231064	188052	90339	17011	16990	2161246	2753	1038843	39370	14794106	18563	0	0	0	0	0
2024-07-04 19:01:44			1	23330	230532	187622	90133	17012	16980	2162430	2933	1038780	39380	14794056	18521	0	0	0	0	0
2024-07-04 19:02:14			1	23340	230331	187462	90056	17013	16980	2166766	2923	1038807	39380	14792761	18505	0	0	0	0	0
2024-07-04 19:02:44			1	23357	230001	187193	89927	17013	16990	2168718	2691	1038761	39380	14792755	18479	0	0	0	0	0
2024-07-04 19:03:14			1	23360	229942	187146	89904	17013	16980	2167878	2889	1038744	39379	14792798	18474	0	0	0	0	0
2024-07-04 19:03:44			1	23357	230001	187193	89927	17013	16980	2168646	2998	1038780	39391	14792771	18479	0	0	0	0	0
2024-07-04 19:04:14			1	23365	229846	187067	89866	17013	16980	2169230	2926	1038834	39391	14792838	18466	0	0	0	0	0
2024-07-04 19:04:44			1	23389	229361	186683	89682	17016	16980	2170246	2831	1038752	39391	14790842	18428	0	0	0	0	0
2024-07-04 19:05:14			1	23395	229232	186585	89635	17018	16970	2172438	2948	1038726	39388	14789941	18419	0	0	0	0	0
2024-07-04 19:05:44			1	23398	229141	186528	89608	17023	16970	2173062	3037	1038753	39388	14786036	18413	0	0	0	0	0
2024-07-04 19:06:14			1	23430	228451	186004	89358	17034	16980	2176574	3125	1038771	39390	14778943	18361	0	0	0	0	0
2024-07-04 19:06:44			1	23428	228483	186034	89372	17035	16980	2175454	2919	1038798	39379	14777834	18364	0	0	0	0	0
2024-07-04 19:07:14			1	23429	228451	186014	89363	17037	16960	2174158	2978	1038771	39377	14776906	18362	0	0	0	0	0
2024-07-04 19:07:44			1	23432	228380	185963	89339	17039	16980	2175206	2723	1038825	39390	14775678	18357	0	0	0	0	0
2024-07-04 19:08:14			1	23446	228084	185736	89230	17043	16970	2176806	2745	1038834	39388	14772597	18335	0	0	0	0	0
2024-07-04 19:08:44			1	23456	227892	185580	89155	17043	16970	2178215	2703	1038807	39388	14772964	18319	0	0	0	0	0
2024-07-04 19:09:14			1	23462	227797	185492	89113	17040	16980	2180294	3039	1038807	39380	14774583	18311	0	0	0	0	0
2024-07-04 19:09:44			1	23475	227541	185287	89014	17041	16990	2181374	2784	1038852	39391	14773842	18290	0	0	0	0	0
2024-07-04 19:10:14			1	23495	227152	184974	88864	17042	16980	2182678	2597	1038825	39390	14773712	18260	0	0	0	0	0
2024-07-04 19:10:44			1	23513	226808	184693	88729	17042	16980	2184934	2721	1038807	39391	14773625	18232	0	0	0	0	0
2024-07-04 19:11:14			1	23522	226623	184550	88660	17044	16980	2188079	2811	1038852	39390	14772310	18218	0	0	0	0	0
2024-07-04 19:11:44			1	23556	225969	184021	88406	17045	16980	2189534	2660	1038807	39380	14771039	18165	0	0	0	0	0
2024-07-04 19:12:14			1	23581	225482	183630	88219	17047	16980	2192071	3110	1038780	39391	14770277	18127	0	0	0	0	0
2024-07-04 19:12:44			1	23591	225286	183474	88144	17048	16990	2195326	2942	1038852	39370	14769466	18112	0	0	0	0	0
2024-07-04 19:13:14			1	23616	224806	183087	87958	17049	16990	2197814	2676	1038797	39380	14768929	18073	0	0	0	0	0
2024-07-04 19:13:44			1	23639	224366	182732	87788	17050	16990	2198958	2675	1038816	39391	14767864	18038	0	0	0	0	0
2024-07-04 19:14:14			1	23645	224246	182638	87742	17051	16980	2201614	2529	1038752	39391	14767307	18029	0	0	0	0	0
2024-07-04 19:14:44			1	23667	223838	182302	87581	17050	16990	2201439	2520	1038797	39380	14767838	17996	0	0	0	0	0
2024-07-04 19:15:14			1	23660	224047	182432	87642	17038	16990	2202335	2525	1038879	39391	14776155	18009	0	0	0	0	0
2024-07-04 19:15:44			1	23654	224180	182530	87689	17035	16980	2201631	2802	1038834	39380	14778228	18018	0	0	0	0	0
2024-07-04 19:16:14			1	23627	224696	182946	87889	17034	17000	2198207	3094	1038833	39381	14778866	18059	0	0	0	0	0
2024-07-04 19:16:44			1	23603	225149	183316	88066	17034	16980	2196135	2697	1038834	39380	14779106	18096	0	0	0	0	0
2024-07-04 19:17:14			1	23564	225876	183914	88354	17036	16980	2190486	2955	1038807	39380	14777210	18155	0	0	0	0	0
2024-07-04 19:17:44			1	23519	226739	184614	88690	17035	16980	2185886	2543	1038798	39379	14777864	18224	0	0	0	0	0
2024-07-04 19:18:14			1	23487	227351	185112	88929	17035	16990	2182190	2946	1038852	39380	14778429	18273	0	0	0	0	0
2024-07-04 19:18:44			1	23470	227676	185377	89057	17035	16990	2179894	2646	1038816	39359	14778208	18299	0	0	0	0	0
2024-07-04 19:19:14			1	23438	228291	185877	89297	17035	16980	2178502	2823	1038771	39390	14778041	18349	0	0	0	0	0
2024-07-04 19:19:44			1	23423	228566	186108	89408	17037	16990	2177358	2682	1038843	39380	14776459	18372	0	0	0	0	0
2024-07-04 19:20:14			1	23415	228694	186226	89465	17041	16990	2175118	2527	1038870	39380	14774226	18383	0	0	0	0	0
2024-07-04 19:20:44			1	23375	229447	186849	89765	17044	16990	2170486	2706	1038816	39391	14772027	18445	0	0	0	0	0
2024-07-04 19:21:14			1	23291	231065	188174	90402	17046	16980	2160814	2806	1038780	39380	14770668	18575	0	0	0	0	0
2024-07-04 19:21:44			1	23204	232776	189564	91069	17045	16980	2151501	2833	1038825	39390	14771105	18713	0	0	0	0	0
2024-07-04 19:22:14			1	23142	233979	190554	91545	17048	16990	2145181	2576	1038824	39380	14769340	18810	0	0	0	0	0
2024-07-04 19:22:44			1	23063	235460	191806	92148	17061	16990	2137469	3006	1038852	39391	14760437	18934	0	0	0	0	0
2024-07-04 19:23:14			1	22944	237826	193744	93080	17064	16990	2124933	2987	1038924	39391	14758281	19125	0	0	0	0	0
2024-07-04 19:23:44			1	22908	238560	194339	93365	17063	16990	2119629	2603	1038897	39391	14758869	19184	0	0	0	0	0
2024-07-04 19:24:14			1	22883	239019	194737	93558	17070	16980	2116597	2844	1038861	39380	14754269	19223	0	0	0	0	0
2024-07-04 19:24:44			1	22864	239370	195042	93704	17075	16990	2114821	2962	1038924	39380	14750718	19253	0	0	0	0	0
2024-07-04 19:25:14			1	22857	239512	195158	93760	17075	17000	2113989	2797	1038842	39371	14750731	19265	0	0	0	0	0
2024-07-04 19:25:44			1	22853	239649	195240	93799	17067	16990	2113989	2712	1038933	39380	14756499	19273	0	0	0	0	0
2024-07-04 19:26:14			1	22858	239540	195155	93758	17068	16990	2113061	2442	1038897	39391	14755497	19265	0	0	0	0	0
2024-07-04 19:26:44			1	22848	239744	195321	93838	17068	16990	2112341	2851	1038879	39391	14756065	19281	0	0	0	0	0
2024-07-04 19:27:14			1	22874	239229	194894	93633	17066	16990	2113597	2376	1038879	39380	14757360	19239	0	0	0	0	0
2024-07-04 19:27:44			1	22870	239303	194958	93664	17067	17000	2113933	2823	1038860	39381	14756315	19245	0	0	0	0	0
2024-07-04 19:28:14			1	22866	239392	195027	93696	17066	17000	2113501	2730	1038915	39381	14756973	19252	0	0	0	0	0
2024-07-04 19:28:44			1	22873	239249	194911	93641	17066	17000	2113901	2625	1038942	39392	14757140	19240	0	0	0	0	0
2024-07-04 19:29:14			1	22888	238952	194665	93522	17065	17000	2116789	2704	1038860	39381	14757654	19216	0	0	0	0	0
2024-07-04 19:29:44			1	22893	238857	194584	93483	17064	17000	2117789	2598	1038833	39392	14758478	19208	0	0	0	0	0
2024-07-04 19:30:14			1	22916	238405	194209	93303	17062	17000	2117733	3010	1038969	39392	14759813	19171	0	0	0	0	0
2024-07-04 19:30:44			1	22936	238001	193880	93145	17062	17000	2120541	2652	1038888	39381	14759753	19139	0	0	0	0	0
2024-07-04 19:31:14			1	22945	237819	193732	93074	17062	17010	2120877	2931	1038851	39382	14759733	19124	0	0	0	0	0
2024-07-04 19:31:44			1	22948	237752	193680	93049	17063	17000	2122533	2797	1038833	39392	14759383	19119	0	0	0	0	0
2024-07-04 19:32:14			1	22950	237691	193642	93031	17066	17000	2123997	2927	1038869	39393	14757013	19115	0	0	0	0	0
2024-07-04 19:32:44			1	22951	237644	193617	93019	17070	17000	2122445	2900	1038833	39392	14754436	19113	0	0	0	0	0
2024-07-04 19:33:14			1	22945	237785	193722	93069	17067	17000	2122637	2861	1038942	39392	14756222	19123	0	0	0	0	0
2024-07-04 19:33:44			1	22953	237624	193590	93006	17067	17000	2123613	2698	1038815	39382	14756589	19110	0	0	0	0	0
2024-07-04 19:34:14			1	22962	237456	193447	92937	17065	17000	2124181	2866	1038915	39381	14757597	19096	0	0	0	0	0
2024-07-04 19:34:44			1	22971	237262	193295	92864	17067	17010	2125253	2952	1039014	39382	14756352	19081	0	0	0	0	0
2024-07-04 19:35:14			1	22989	236907	193002	92724	17066	17000	2125757	2922	1038978	39393	14756976	19052	0	0	0	0	0
2024-07-04 19:35:44			1	23000	236679	192821	92636	17067	17010	2128325	2888	1038905	39382	14756275	19034	0	0	0	0	0
